<?xml version="1.0" encoding="UTF-8" standalone="no" ?>
<gpx xmlns="http://www.topografix.com/GPX/1/1" xmlns:xsi="http://www.w3.org/2001/XMLSchema-instance" xsi:schemaLocation="http://www.topografix.com/GPX/1/1 http://www.topografix.com/GPX/1/1/gpx.xsd" version="1.1" creator="VisuGPX - https://www.visugpx.com">
  <metadata>
    <name>Vidauban la Cascade de l'Aille, le Bois de Bouis</name>
    <desc><![CDATA[Voir : [url]https://les-randos-du-grand.eklablog.com/2026/03/vidauban-la-cascade-de-laille-le-bois-de-bouis-bis.html[/url]]]></desc>
  </metadata>
  <trk>
    <name><![CDATA[Bouis_2026]]></name>
    <trkseg>
      <trkpt lat="43.39674" lon="6.45455">
        <ele>47.72</ele>
        <time>2026-03-20T09:18:44Z</time>
      </trkpt>
      <trkpt lat="43.39676" lon="6.45455">
        <ele>48.2</ele>
        <time>2026-03-20T09:19:12Z</time>
      </trkpt>
      <trkpt lat="43.39674" lon="6.45454">
        <ele>50.13</ele>
        <time>2026-03-20T09:19:37Z</time>
      </trkpt>
      <trkpt lat="43.39675" lon="6.45453">
        <ele>51.57</ele>
        <time>2026-03-20T09:19:59Z</time>
      </trkpt>
      <trkpt lat="43.39674" lon="6.45454">
        <ele>51.57</ele>
        <time>2026-03-20T09:20:15Z</time>
      </trkpt>
      <trkpt lat="43.39675" lon="6.45458">
        <ele>51.57</ele>
        <time>2026-03-20T09:20:25Z</time>
      </trkpt>
      <trkpt lat="43.39674" lon="6.45457">
        <ele>50.13</ele>
        <time>2026-03-20T09:20:55Z</time>
      </trkpt>
      <trkpt lat="43.39673" lon="6.45457">
        <ele>46.76</ele>
        <time>2026-03-20T09:21:13Z</time>
      </trkpt>
      <trkpt lat="43.39674" lon="6.45458">
        <ele>49.16</ele>
        <time>2026-03-20T09:21:29Z</time>
      </trkpt>
      <trkpt lat="43.39673" lon="6.45458">
        <ele>47.72</ele>
        <time>2026-03-20T09:21:41Z</time>
      </trkpt>
      <trkpt lat="43.39674" lon="6.45452">
        <ele>49.16</ele>
        <time>2026-03-20T09:21:52Z</time>
      </trkpt>
      <trkpt lat="43.39673" lon="6.45453">
        <ele>49.65</ele>
        <time>2026-03-20T09:22:10Z</time>
      </trkpt>
      <trkpt lat="43.3967" lon="6.45457">
        <ele>50.61</ele>
        <time>2026-03-20T09:22:23Z</time>
      </trkpt>
      <trkpt lat="43.39665" lon="6.45458">
        <ele>49.65</ele>
        <time>2026-03-20T09:22:41Z</time>
      </trkpt>
      <trkpt lat="43.39657" lon="6.45462">
        <ele>49.16</ele>
        <time>2026-03-20T09:22:51Z</time>
      </trkpt>
      <trkpt lat="43.39648" lon="6.45468">
        <ele>48.68</ele>
        <time>2026-03-20T09:23:04Z</time>
      </trkpt>
      <trkpt lat="43.3964" lon="6.45469">
        <ele>47.72</ele>
        <time>2026-03-20T09:23:17Z</time>
      </trkpt>
      <trkpt lat="43.39638" lon="6.45468">
        <ele>46.76</ele>
        <time>2026-03-20T09:23:24Z</time>
      </trkpt>
      <trkpt lat="43.39632" lon="6.45472">
        <ele>47.72</ele>
        <time>2026-03-20T09:23:37Z</time>
      </trkpt>
      <trkpt lat="43.39631" lon="6.45474">
        <ele>48.2</ele>
        <time>2026-03-20T09:23:50Z</time>
      </trkpt>
      <trkpt lat="43.3963" lon="6.45474">
        <ele>46.76</ele>
        <time>2026-03-20T09:24:12Z</time>
      </trkpt>
      <trkpt lat="43.39633" lon="6.45473">
        <ele>47.24</ele>
        <time>2026-03-20T09:24:26Z</time>
      </trkpt>
      <trkpt lat="43.39632" lon="6.45473">
        <ele>45.8</ele>
        <time>2026-03-20T09:24:44Z</time>
      </trkpt>
      <trkpt lat="43.39632" lon="6.45467">
        <ele>46.28</ele>
        <time>2026-03-20T09:24:55Z</time>
      </trkpt>
      <trkpt lat="43.39628" lon="6.45463">
        <ele>45.32</ele>
        <time>2026-03-20T09:25:05Z</time>
      </trkpt>
      <trkpt lat="43.39625" lon="6.45463">
        <ele>46.76</ele>
        <time>2026-03-20T09:25:19Z</time>
      </trkpt>
      <trkpt lat="43.39626" lon="6.45463">
        <ele>46.76</ele>
        <time>2026-03-20T09:25:21Z</time>
      </trkpt>
      <trkpt lat="43.39632" lon="6.45463">
        <ele>46.76</ele>
        <time>2026-03-20T09:25:28Z</time>
      </trkpt>
      <trkpt lat="43.39639" lon="6.45462">
        <ele>47.72</ele>
        <time>2026-03-20T09:25:39Z</time>
      </trkpt>
      <trkpt lat="43.39649" lon="6.45469">
        <ele>48.2</ele>
        <time>2026-03-20T09:25:53Z</time>
      </trkpt>
      <trkpt lat="43.39659" lon="6.45473">
        <ele>48.68</ele>
        <time>2026-03-20T09:26:06Z</time>
      </trkpt>
      <trkpt lat="43.39667" lon="6.45482">
        <ele>49.16</ele>
        <time>2026-03-20T09:26:20Z</time>
      </trkpt>
      <trkpt lat="43.39674" lon="6.45488">
        <ele>48.68</ele>
        <time>2026-03-20T09:26:32Z</time>
      </trkpt>
      <trkpt lat="43.39682" lon="6.45494">
        <ele>49.65</ele>
        <time>2026-03-20T09:26:45Z</time>
      </trkpt>
      <trkpt lat="43.39688" lon="6.455">
        <ele>49.65</ele>
        <time>2026-03-20T09:26:59Z</time>
      </trkpt>
      <trkpt lat="43.3969" lon="6.4551">
        <ele>49.16</ele>
        <time>2026-03-20T09:27:11Z</time>
      </trkpt>
      <trkpt lat="43.39695" lon="6.45518">
        <ele>48.68</ele>
        <time>2026-03-20T09:27:23Z</time>
      </trkpt>
      <trkpt lat="43.39696" lon="6.45529">
        <ele>48.68</ele>
        <time>2026-03-20T09:27:36Z</time>
      </trkpt>
      <trkpt lat="43.39698" lon="6.45528">
        <ele>49.16</ele>
        <time>2026-03-20T09:27:48Z</time>
      </trkpt>
      <trkpt lat="43.397" lon="6.45519">
        <ele>49.65</ele>
        <time>2026-03-20T09:28:02Z</time>
      </trkpt>
      <trkpt lat="43.39708" lon="6.45519">
        <ele>49.65</ele>
        <time>2026-03-20T09:28:14Z</time>
      </trkpt>
      <trkpt lat="43.39713" lon="6.4552">
        <ele>49.16</ele>
        <time>2026-03-20T09:28:29Z</time>
      </trkpt>
      <trkpt lat="43.39713" lon="6.45519">
        <ele>49.65</ele>
        <time>2026-03-20T09:28:48Z</time>
      </trkpt>
      <trkpt lat="43.39713" lon="6.45519">
        <ele>49.16</ele>
        <time>2026-03-20T09:29:05Z</time>
      </trkpt>
      <trkpt lat="43.39713" lon="6.4552">
        <ele>49.16</ele>
        <time>2026-03-20T09:29:22Z</time>
      </trkpt>
      <trkpt lat="43.39711" lon="6.45521">
        <ele>51.09</ele>
        <time>2026-03-20T09:29:40Z</time>
      </trkpt>
      <trkpt lat="43.39713" lon="6.4552">
        <ele>50.61</ele>
        <time>2026-03-20T09:29:59Z</time>
      </trkpt>
      <trkpt lat="43.39714" lon="6.4552">
        <ele>49.65</ele>
        <time>2026-03-20T09:30:15Z</time>
      </trkpt>
      <trkpt lat="43.39715" lon="6.45519">
        <ele>50.13</ele>
        <time>2026-03-20T09:30:27Z</time>
      </trkpt>
      <trkpt lat="43.39716" lon="6.45528">
        <ele>50.61</ele>
        <time>2026-03-20T09:30:40Z</time>
      </trkpt>
      <trkpt lat="43.39722" lon="6.45533">
        <ele>51.57</ele>
        <time>2026-03-20T09:30:51Z</time>
      </trkpt>
      <trkpt lat="43.39728" lon="6.45539">
        <ele>52.53</ele>
        <time>2026-03-20T09:31:02Z</time>
      </trkpt>
      <trkpt lat="43.39735" lon="6.45551">
        <ele>53.49</ele>
        <time>2026-03-20T09:31:16Z</time>
      </trkpt>
      <trkpt lat="43.39734" lon="6.45559">
        <ele>54.45</ele>
        <time>2026-03-20T09:31:30Z</time>
      </trkpt>
      <trkpt lat="43.39735" lon="6.45565">
        <ele>53.97</ele>
        <time>2026-03-20T09:31:45Z</time>
      </trkpt>
      <trkpt lat="43.3973" lon="6.45578">
        <ele>55.89</ele>
        <time>2026-03-20T09:32:02Z</time>
      </trkpt>
      <trkpt lat="43.39726" lon="6.45581">
        <ele>54.45</ele>
        <time>2026-03-20T09:32:17Z</time>
      </trkpt>
      <trkpt lat="43.39723" lon="6.45588">
        <ele>56.37</ele>
        <time>2026-03-20T09:32:33Z</time>
      </trkpt>
      <trkpt lat="43.39722" lon="6.45595">
        <ele>57.34</ele>
        <time>2026-03-20T09:32:39Z</time>
      </trkpt>
      <trkpt lat="43.39715" lon="6.4561">
        <ele>61.18</ele>
        <time>2026-03-20T09:32:52Z</time>
      </trkpt>
      <trkpt lat="43.39707" lon="6.45619">
        <ele>59.74</ele>
        <time>2026-03-20T09:33:00Z</time>
      </trkpt>
      <trkpt lat="43.39699" lon="6.45618">
        <ele>58.78</ele>
        <time>2026-03-20T09:33:07Z</time>
      </trkpt>
      <trkpt lat="43.39696" lon="6.45616">
        <ele>57.82</ele>
        <time>2026-03-20T09:33:10Z</time>
      </trkpt>
      <trkpt lat="43.39679" lon="6.45603">
        <ele>55.89</ele>
        <time>2026-03-20T09:33:28Z</time>
      </trkpt>
      <trkpt lat="43.3967" lon="6.45594">
        <ele>54.93</ele>
        <time>2026-03-20T09:33:40Z</time>
      </trkpt>
      <trkpt lat="43.39667" lon="6.45591">
        <ele>54.45</ele>
        <time>2026-03-20T09:33:44Z</time>
      </trkpt>
      <trkpt lat="43.39664" lon="6.4559">
        <ele>54.45</ele>
        <time>2026-03-20T09:33:47Z</time>
      </trkpt>
      <trkpt lat="43.39651" lon="6.45577">
        <ele>53.49</ele>
        <time>2026-03-20T09:34:04Z</time>
      </trkpt>
      <trkpt lat="43.39641" lon="6.4557">
        <ele>53.01</ele>
        <time>2026-03-20T09:34:19Z</time>
      </trkpt>
      <trkpt lat="43.39633" lon="6.45561">
        <ele>52.53</ele>
        <time>2026-03-20T09:34:32Z</time>
      </trkpt>
      <trkpt lat="43.39627" lon="6.45557">
        <ele>51.09</ele>
        <time>2026-03-20T09:34:44Z</time>
      </trkpt>
      <trkpt lat="43.39627" lon="6.45556">
        <ele>51.57</ele>
        <time>2026-03-20T09:34:55Z</time>
      </trkpt>
      <trkpt lat="43.39619" lon="6.45548">
        <ele>50.61</ele>
        <time>2026-03-20T09:35:08Z</time>
      </trkpt>
      <trkpt lat="43.39611" lon="6.45541">
        <ele>50.13</ele>
        <time>2026-03-20T09:35:21Z</time>
      </trkpt>
      <trkpt lat="43.39606" lon="6.45534">
        <ele>49.16</ele>
        <time>2026-03-20T09:35:33Z</time>
      </trkpt>
      <trkpt lat="43.396" lon="6.45523">
        <ele>49.16</ele>
        <time>2026-03-20T09:35:45Z</time>
      </trkpt>
      <trkpt lat="43.39598" lon="6.45512">
        <ele>49.65</ele>
        <time>2026-03-20T09:35:58Z</time>
      </trkpt>
      <trkpt lat="43.39601" lon="6.45502">
        <ele>49.65</ele>
        <time>2026-03-20T09:36:10Z</time>
      </trkpt>
      <trkpt lat="43.39608" lon="6.45498">
        <ele>49.65</ele>
        <time>2026-03-20T09:36:22Z</time>
      </trkpt>
      <trkpt lat="43.39611" lon="6.45496">
        <ele>47.72</ele>
        <time>2026-03-20T09:36:35Z</time>
      </trkpt>
      <trkpt lat="43.39611" lon="6.45497">
        <ele>47.72</ele>
        <time>2026-03-20T09:36:52Z</time>
      </trkpt>
      <trkpt lat="43.39613" lon="6.45497">
        <ele>46.28</ele>
        <time>2026-03-20T09:37:06Z</time>
      </trkpt>
      <trkpt lat="43.39611" lon="6.45496">
        <ele>46.28</ele>
        <time>2026-03-20T09:37:25Z</time>
      </trkpt>
      <trkpt lat="43.39607" lon="6.45495">
        <ele>47.24</ele>
        <time>2026-03-20T09:37:39Z</time>
      </trkpt>
      <trkpt lat="43.39606" lon="6.45494">
        <ele>46.76</ele>
        <time>2026-03-20T09:37:51Z</time>
      </trkpt>
      <trkpt lat="43.39603" lon="6.45499">
        <ele>47.72</ele>
        <time>2026-03-20T09:37:57Z</time>
      </trkpt>
      <trkpt lat="43.39599" lon="6.4551">
        <ele>48.2</ele>
        <time>2026-03-20T09:38:09Z</time>
      </trkpt>
      <trkpt lat="43.39596" lon="6.45521">
        <ele>48.68</ele>
        <time>2026-03-20T09:38:23Z</time>
      </trkpt>
      <trkpt lat="43.39592" lon="6.45521">
        <ele>48.2</ele>
        <time>2026-03-20T09:38:31Z</time>
      </trkpt>
      <trkpt lat="43.39581" lon="6.45517">
        <ele>48.2</ele>
        <time>2026-03-20T09:38:46Z</time>
      </trkpt>
      <trkpt lat="43.39574" lon="6.45512">
        <ele>48.68</ele>
        <time>2026-03-20T09:38:55Z</time>
      </trkpt>
      <trkpt lat="43.39563" lon="6.45509">
        <ele>48.2</ele>
        <time>2026-03-20T09:39:09Z</time>
      </trkpt>
      <trkpt lat="43.39553" lon="6.45503">
        <ele>48.68</ele>
        <time>2026-03-20T09:39:23Z</time>
      </trkpt>
      <trkpt lat="43.39542" lon="6.45505">
        <ele>49.16</ele>
        <time>2026-03-20T09:39:35Z</time>
      </trkpt>
      <trkpt lat="43.39539" lon="6.45506">
        <ele>49.16</ele>
        <time>2026-03-20T09:39:40Z</time>
      </trkpt>
      <trkpt lat="43.39527" lon="6.45507">
        <ele>49.65</ele>
        <time>2026-03-20T09:39:56Z</time>
      </trkpt>
      <trkpt lat="43.39515" lon="6.45506">
        <ele>49.65</ele>
        <time>2026-03-20T09:40:09Z</time>
      </trkpt>
      <trkpt lat="43.39503" lon="6.45507">
        <ele>49.65</ele>
        <time>2026-03-20T09:40:23Z</time>
      </trkpt>
      <trkpt lat="43.3949" lon="6.45506">
        <ele>50.13</ele>
        <time>2026-03-20T09:40:38Z</time>
      </trkpt>
      <trkpt lat="43.39487" lon="6.45502">
        <ele>50.13</ele>
        <time>2026-03-20T09:40:43Z</time>
      </trkpt>
      <trkpt lat="43.3948" lon="6.45493">
        <ele>49.65</ele>
        <time>2026-03-20T09:40:57Z</time>
      </trkpt>
      <trkpt lat="43.39471" lon="6.45482">
        <ele>50.13</ele>
        <time>2026-03-20T09:41:11Z</time>
      </trkpt>
      <trkpt lat="43.39465" lon="6.45482">
        <ele>48.68</ele>
        <time>2026-03-20T09:41:24Z</time>
      </trkpt>
      <trkpt lat="43.39465" lon="6.45482">
        <ele>50.61</ele>
        <time>2026-03-20T09:41:35Z</time>
      </trkpt>
      <trkpt lat="43.3947" lon="6.45479">
        <ele>53.01</ele>
        <time>2026-03-20T09:41:46Z</time>
      </trkpt>
      <trkpt lat="43.39478" lon="6.45487">
        <ele>57.34</ele>
        <time>2026-03-20T09:42:01Z</time>
      </trkpt>
      <trkpt lat="43.39485" lon="6.45494">
        <ele>61.18</ele>
        <time>2026-03-20T09:42:15Z</time>
      </trkpt>
      <trkpt lat="43.39487" lon="6.45505">
        <ele>61.18</ele>
        <time>2026-03-20T09:42:27Z</time>
      </trkpt>
      <trkpt lat="43.39481" lon="6.45512">
        <ele>59.74</ele>
        <time>2026-03-20T09:42:36Z</time>
      </trkpt>
      <trkpt lat="43.39476" lon="6.45517">
        <ele>56.86</ele>
        <time>2026-03-20T09:42:49Z</time>
      </trkpt>
      <trkpt lat="43.39477" lon="6.45517">
        <ele>56.37</ele>
        <time>2026-03-20T09:42:52Z</time>
      </trkpt>
      <trkpt lat="43.39482" lon="6.45515">
        <ele>56.86</ele>
        <time>2026-03-20T09:43:05Z</time>
      </trkpt>
      <trkpt lat="43.39482" lon="6.45526">
        <ele>57.34</ele>
        <time>2026-03-20T09:43:17Z</time>
      </trkpt>
      <trkpt lat="43.39483" lon="6.45535">
        <ele>57.34</ele>
        <time>2026-03-20T09:43:29Z</time>
      </trkpt>
      <trkpt lat="43.39481" lon="6.45544">
        <ele>58.3</ele>
        <time>2026-03-20T09:43:42Z</time>
      </trkpt>
      <trkpt lat="43.39478" lon="6.45552">
        <ele>59.74</ele>
        <time>2026-03-20T09:43:55Z</time>
      </trkpt>
      <trkpt lat="43.39473" lon="6.45557">
        <ele>59.74</ele>
        <time>2026-03-20T09:44:03Z</time>
      </trkpt>
      <trkpt lat="43.39463" lon="6.45569">
        <ele>59.26</ele>
        <time>2026-03-20T09:44:18Z</time>
      </trkpt>
      <trkpt lat="43.39456" lon="6.45584">
        <ele>61.66</ele>
        <time>2026-03-20T09:44:33Z</time>
      </trkpt>
      <trkpt lat="43.39453" lon="6.45592">
        <ele>61.66</ele>
        <time>2026-03-20T09:44:41Z</time>
      </trkpt>
      <trkpt lat="43.39449" lon="6.4561">
        <ele>62.14</ele>
        <time>2026-03-20T09:44:57Z</time>
      </trkpt>
      <trkpt lat="43.39445" lon="6.45619">
        <ele>62.62</ele>
        <time>2026-03-20T09:45:05Z</time>
      </trkpt>
      <trkpt lat="43.39435" lon="6.45637">
        <ele>60.7</ele>
        <time>2026-03-20T09:45:22Z</time>
      </trkpt>
      <trkpt lat="43.3943" lon="6.45641">
        <ele>58.78</ele>
        <time>2026-03-20T09:45:34Z</time>
      </trkpt>
      <trkpt lat="43.39427" lon="6.45643">
        <ele>57.34</ele>
        <time>2026-03-20T09:45:39Z</time>
      </trkpt>
      <trkpt lat="43.39418" lon="6.45646">
        <ele>55.89</ele>
        <time>2026-03-20T09:45:49Z</time>
      </trkpt>
      <trkpt lat="43.39408" lon="6.45642">
        <ele>54.93</ele>
        <time>2026-03-20T09:46:02Z</time>
      </trkpt>
      <trkpt lat="43.39405" lon="6.45639">
        <ele>54.93</ele>
        <time>2026-03-20T09:46:06Z</time>
      </trkpt>
      <trkpt lat="43.39399" lon="6.45624">
        <ele>54.45</ele>
        <time>2026-03-20T09:46:20Z</time>
      </trkpt>
      <trkpt lat="43.39398" lon="6.45609">
        <ele>53.49</ele>
        <time>2026-03-20T09:46:33Z</time>
      </trkpt>
      <trkpt lat="43.39398" lon="6.45606">
        <ele>53.49</ele>
        <time>2026-03-20T09:46:36Z</time>
      </trkpt>
      <trkpt lat="43.39399" lon="6.45587">
        <ele>52.05</ele>
        <time>2026-03-20T09:46:51Z</time>
      </trkpt>
      <trkpt lat="43.39397" lon="6.45578">
        <ele>52.53</ele>
        <time>2026-03-20T09:47:00Z</time>
      </trkpt>
      <trkpt lat="43.39391" lon="6.45566">
        <ele>54.45</ele>
        <time>2026-03-20T09:47:13Z</time>
      </trkpt>
      <trkpt lat="43.39385" lon="6.45554">
        <ele>53.49</ele>
        <time>2026-03-20T09:47:25Z</time>
      </trkpt>
      <trkpt lat="43.39378" lon="6.45539">
        <ele>53.01</ele>
        <time>2026-03-20T09:47:38Z</time>
      </trkpt>
      <trkpt lat="43.39372" lon="6.45526">
        <ele>52.53</ele>
        <time>2026-03-20T09:47:51Z</time>
      </trkpt>
      <trkpt lat="43.39363" lon="6.45514">
        <ele>53.49</ele>
        <time>2026-03-20T09:48:05Z</time>
      </trkpt>
      <trkpt lat="43.39361" lon="6.4551">
        <ele>53.97</ele>
        <time>2026-03-20T09:48:09Z</time>
      </trkpt>
      <trkpt lat="43.39359" lon="6.45508">
        <ele>53.49</ele>
        <time>2026-03-20T09:48:11Z</time>
      </trkpt>
      <trkpt lat="43.39354" lon="6.455">
        <ele>52.05</ele>
        <time>2026-03-20T09:48:25Z</time>
      </trkpt>
      <trkpt lat="43.39346" lon="6.45493">
        <ele>51.57</ele>
        <time>2026-03-20T09:48:40Z</time>
      </trkpt>
      <trkpt lat="43.39337" lon="6.45487">
        <ele>52.53</ele>
        <time>2026-03-20T09:48:52Z</time>
      </trkpt>
      <trkpt lat="43.39336" lon="6.45487">
        <ele>52.53</ele>
        <time>2026-03-20T09:48:53Z</time>
      </trkpt>
      <trkpt lat="43.3932" lon="6.45482">
        <ele>52.05</ele>
        <time>2026-03-20T09:49:10Z</time>
      </trkpt>
      <trkpt lat="43.39309" lon="6.45483">
        <ele>52.05</ele>
        <time>2026-03-20T09:49:25Z</time>
      </trkpt>
      <trkpt lat="43.39307" lon="6.45484">
        <ele>52.05</ele>
        <time>2026-03-20T09:49:27Z</time>
      </trkpt>
      <trkpt lat="43.39293" lon="6.45484">
        <ele>52.05</ele>
        <time>2026-03-20T09:49:42Z</time>
      </trkpt>
      <trkpt lat="43.39284" lon="6.45483">
        <ele>52.53</ele>
        <time>2026-03-20T09:49:55Z</time>
      </trkpt>
      <trkpt lat="43.39269" lon="6.45477">
        <ele>52.05</ele>
        <time>2026-03-20T09:50:10Z</time>
      </trkpt>
      <trkpt lat="43.39261" lon="6.45474">
        <ele>52.05</ele>
        <time>2026-03-20T09:50:19Z</time>
      </trkpt>
      <trkpt lat="43.39248" lon="6.45469">
        <ele>52.05</ele>
        <time>2026-03-20T09:50:34Z</time>
      </trkpt>
      <trkpt lat="43.39246" lon="6.45469">
        <ele>52.05</ele>
        <time>2026-03-20T09:50:36Z</time>
      </trkpt>
      <trkpt lat="43.39235" lon="6.45462">
        <ele>53.01</ele>
        <time>2026-03-20T09:50:51Z</time>
      </trkpt>
      <trkpt lat="43.39224" lon="6.45459">
        <ele>53.49</ele>
        <time>2026-03-20T09:51:04Z</time>
      </trkpt>
      <trkpt lat="43.39216" lon="6.4545">
        <ele>52.05</ele>
        <time>2026-03-20T09:51:17Z</time>
      </trkpt>
      <trkpt lat="43.39212" lon="6.45446">
        <ele>51.09</ele>
        <time>2026-03-20T09:51:28Z</time>
      </trkpt>
      <trkpt lat="43.39209" lon="6.45431">
        <ele>51.09</ele>
        <time>2026-03-20T09:51:42Z</time>
      </trkpt>
      <trkpt lat="43.39208" lon="6.45421">
        <ele>50.61</ele>
        <time>2026-03-20T09:51:56Z</time>
      </trkpt>
      <trkpt lat="43.3921" lon="6.45411">
        <ele>50.61</ele>
        <time>2026-03-20T09:52:07Z</time>
      </trkpt>
      <trkpt lat="43.39212" lon="6.454">
        <ele>51.09</ele>
        <time>2026-03-20T09:52:20Z</time>
      </trkpt>
      <trkpt lat="43.39212" lon="6.45388">
        <ele>52.05</ele>
        <time>2026-03-20T09:52:34Z</time>
      </trkpt>
      <trkpt lat="43.39214" lon="6.45377">
        <ele>53.97</ele>
        <time>2026-03-20T09:52:47Z</time>
      </trkpt>
      <trkpt lat="43.39207" lon="6.45364">
        <ele>54.45</ele>
        <time>2026-03-20T09:53:02Z</time>
      </trkpt>
      <trkpt lat="43.39196" lon="6.45359">
        <ele>54.45</ele>
        <time>2026-03-20T09:53:17Z</time>
      </trkpt>
      <trkpt lat="43.39188" lon="6.45356">
        <ele>54.45</ele>
        <time>2026-03-20T09:53:31Z</time>
      </trkpt>
      <trkpt lat="43.39183" lon="6.45351">
        <ele>55.41</ele>
        <time>2026-03-20T09:53:43Z</time>
      </trkpt>
      <trkpt lat="43.39174" lon="6.45354">
        <ele>56.86</ele>
        <time>2026-03-20T09:53:57Z</time>
      </trkpt>
      <trkpt lat="43.39161" lon="6.45355">
        <ele>57.82</ele>
        <time>2026-03-20T09:54:12Z</time>
      </trkpt>
      <trkpt lat="43.39145" lon="6.45358">
        <ele>57.34</ele>
        <time>2026-03-20T09:54:28Z</time>
      </trkpt>
      <trkpt lat="43.39137" lon="6.45358">
        <ele>56.86</ele>
        <time>2026-03-20T09:54:38Z</time>
      </trkpt>
      <trkpt lat="43.3913" lon="6.45359">
        <ele>57.82</ele>
        <time>2026-03-20T09:54:45Z</time>
      </trkpt>
      <trkpt lat="43.39117" lon="6.45358">
        <ele>58.3</ele>
        <time>2026-03-20T09:55:00Z</time>
      </trkpt>
      <trkpt lat="43.39104" lon="6.45358">
        <ele>59.26</ele>
        <time>2026-03-20T09:55:15Z</time>
      </trkpt>
      <trkpt lat="43.39092" lon="6.45356">
        <ele>59.26</ele>
        <time>2026-03-20T09:55:29Z</time>
      </trkpt>
      <trkpt lat="43.39079" lon="6.45353">
        <ele>59.74</ele>
        <time>2026-03-20T09:55:44Z</time>
      </trkpt>
      <trkpt lat="43.39074" lon="6.4535">
        <ele>58.78</ele>
        <time>2026-03-20T09:55:59Z</time>
      </trkpt>
      <trkpt lat="43.39063" lon="6.45346">
        <ele>58.78</ele>
        <time>2026-03-20T09:56:17Z</time>
      </trkpt>
      <trkpt lat="43.3905" lon="6.45341">
        <ele>59.26</ele>
        <time>2026-03-20T09:56:31Z</time>
      </trkpt>
      <trkpt lat="43.39036" lon="6.45337">
        <ele>58.3</ele>
        <time>2026-03-20T09:56:46Z</time>
      </trkpt>
      <trkpt lat="43.39023" lon="6.45335">
        <ele>59.26</ele>
        <time>2026-03-20T09:57:01Z</time>
      </trkpt>
      <trkpt lat="43.39009" lon="6.45332">
        <ele>58.3</ele>
        <time>2026-03-20T09:57:17Z</time>
      </trkpt>
      <trkpt lat="43.38991" lon="6.45329">
        <ele>58.78</ele>
        <time>2026-03-20T09:57:36Z</time>
      </trkpt>
      <trkpt lat="43.38976" lon="6.45326">
        <ele>58.78</ele>
        <time>2026-03-20T09:57:52Z</time>
      </trkpt>
      <trkpt lat="43.38964" lon="6.45326">
        <ele>58.78</ele>
        <time>2026-03-20T09:58:07Z</time>
      </trkpt>
      <trkpt lat="43.38954" lon="6.45326">
        <ele>58.78</ele>
        <time>2026-03-20T09:58:18Z</time>
      </trkpt>
      <trkpt lat="43.38944" lon="6.45326">
        <ele>58.3</ele>
        <time>2026-03-20T09:58:29Z</time>
      </trkpt>
      <trkpt lat="43.38931" lon="6.45326">
        <ele>59.74</ele>
        <time>2026-03-20T09:58:44Z</time>
      </trkpt>
      <trkpt lat="43.38919" lon="6.45327">
        <ele>59.74</ele>
        <time>2026-03-20T09:58:58Z</time>
      </trkpt>
      <trkpt lat="43.3891" lon="6.45328">
        <ele>59.26</ele>
        <time>2026-03-20T09:59:10Z</time>
      </trkpt>
      <trkpt lat="43.38896" lon="6.45326">
        <ele>60.22</ele>
        <time>2026-03-20T09:59:25Z</time>
      </trkpt>
      <trkpt lat="43.38887" lon="6.45326">
        <ele>60.7</ele>
        <time>2026-03-20T09:59:36Z</time>
      </trkpt>
      <trkpt lat="43.38877" lon="6.45329">
        <ele>61.18</ele>
        <time>2026-03-20T09:59:47Z</time>
      </trkpt>
      <trkpt lat="43.38862" lon="6.45334">
        <ele>61.18</ele>
        <time>2026-03-20T10:00:04Z</time>
      </trkpt>
      <trkpt lat="43.3885" lon="6.45338">
        <ele>61.18</ele>
        <time>2026-03-20T10:00:18Z</time>
      </trkpt>
      <trkpt lat="43.38838" lon="6.45342">
        <ele>61.66</ele>
        <time>2026-03-20T10:00:32Z</time>
      </trkpt>
      <trkpt lat="43.38827" lon="6.45347">
        <ele>61.66</ele>
        <time>2026-03-20T10:00:47Z</time>
      </trkpt>
      <trkpt lat="43.38816" lon="6.45353">
        <ele>61.66</ele>
        <time>2026-03-20T10:01:03Z</time>
      </trkpt>
      <trkpt lat="43.38805" lon="6.45361">
        <ele>62.14</ele>
        <time>2026-03-20T10:01:18Z</time>
      </trkpt>
      <trkpt lat="43.38793" lon="6.45367">
        <ele>62.62</ele>
        <time>2026-03-20T10:01:32Z</time>
      </trkpt>
      <trkpt lat="43.38781" lon="6.45374">
        <ele>62.14</ele>
        <time>2026-03-20T10:01:46Z</time>
      </trkpt>
      <trkpt lat="43.3878" lon="6.45375">
        <ele>62.14</ele>
        <time>2026-03-20T10:01:47Z</time>
      </trkpt>
      <trkpt lat="43.3877" lon="6.45379">
        <ele>61.18</ele>
        <time>2026-03-20T10:02:00Z</time>
      </trkpt>
      <trkpt lat="43.38756" lon="6.45382">
        <ele>62.14</ele>
        <time>2026-03-20T10:02:15Z</time>
      </trkpt>
      <trkpt lat="43.38742" lon="6.45381">
        <ele>62.62</ele>
        <time>2026-03-20T10:02:31Z</time>
      </trkpt>
      <trkpt lat="43.38726" lon="6.45379">
        <ele>61.66</ele>
        <time>2026-03-20T10:02:48Z</time>
      </trkpt>
      <trkpt lat="43.38712" lon="6.45379">
        <ele>62.14</ele>
        <time>2026-03-20T10:03:03Z</time>
      </trkpt>
      <trkpt lat="43.38696" lon="6.45378">
        <ele>62.62</ele>
        <time>2026-03-20T10:03:20Z</time>
      </trkpt>
      <trkpt lat="43.38682" lon="6.45379">
        <ele>61.66</ele>
        <time>2026-03-20T10:03:35Z</time>
      </trkpt>
      <trkpt lat="43.38668" lon="6.45381">
        <ele>61.66</ele>
        <time>2026-03-20T10:03:50Z</time>
      </trkpt>
      <trkpt lat="43.38653" lon="6.45378">
        <ele>61.18</ele>
        <time>2026-03-20T10:04:07Z</time>
      </trkpt>
      <trkpt lat="43.38639" lon="6.45375">
        <ele>61.66</ele>
        <time>2026-03-20T10:04:24Z</time>
      </trkpt>
      <trkpt lat="43.38625" lon="6.45376">
        <ele>62.62</ele>
        <time>2026-03-20T10:04:39Z</time>
      </trkpt>
      <trkpt lat="43.38612" lon="6.45378">
        <ele>62.14</ele>
        <time>2026-03-20T10:04:53Z</time>
      </trkpt>
      <trkpt lat="43.38599" lon="6.45387">
        <ele>62.62</ele>
        <time>2026-03-20T10:05:09Z</time>
      </trkpt>
      <trkpt lat="43.3859" lon="6.45394">
        <ele>62.62</ele>
        <time>2026-03-20T10:05:23Z</time>
      </trkpt>
      <trkpt lat="43.38583" lon="6.454">
        <ele>63.58</ele>
        <time>2026-03-20T10:05:39Z</time>
      </trkpt>
      <trkpt lat="43.38571" lon="6.45408">
        <ele>64.07</ele>
        <time>2026-03-20T10:05:54Z</time>
      </trkpt>
      <trkpt lat="43.38557" lon="6.45415">
        <ele>64.07</ele>
        <time>2026-03-20T10:06:10Z</time>
      </trkpt>
      <trkpt lat="43.38542" lon="6.45422">
        <ele>63.58</ele>
        <time>2026-03-20T10:06:26Z</time>
      </trkpt>
      <trkpt lat="43.38533" lon="6.45425">
        <ele>63.58</ele>
        <time>2026-03-20T10:06:39Z</time>
      </trkpt>
      <trkpt lat="43.3852" lon="6.45428">
        <ele>64.07</ele>
        <time>2026-03-20T10:06:54Z</time>
      </trkpt>
      <trkpt lat="43.38516" lon="6.45427">
        <ele>62.62</ele>
        <time>2026-03-20T10:07:07Z</time>
      </trkpt>
      <trkpt lat="43.38514" lon="6.45429">
        <ele>62.62</ele>
        <time>2026-03-20T10:07:16Z</time>
      </trkpt>
      <trkpt lat="43.38498" lon="6.45434">
        <ele>63.58</ele>
        <time>2026-03-20T10:07:33Z</time>
      </trkpt>
      <trkpt lat="43.38495" lon="6.45434">
        <ele>61.66</ele>
        <time>2026-03-20T10:07:47Z</time>
      </trkpt>
      <trkpt lat="43.38492" lon="6.45434">
        <ele>61.66</ele>
        <time>2026-03-20T10:08:04Z</time>
      </trkpt>
      <trkpt lat="43.38498" lon="6.45434">
        <ele>64.07</ele>
        <time>2026-03-20T10:08:23Z</time>
      </trkpt>
      <trkpt lat="43.38508" lon="6.4543">
        <ele>64.07</ele>
        <time>2026-03-20T10:08:33Z</time>
      </trkpt>
      <trkpt lat="43.38525" lon="6.45424">
        <ele>65.03</ele>
        <time>2026-03-20T10:08:52Z</time>
      </trkpt>
      <trkpt lat="43.3854" lon="6.4542">
        <ele>66.47</ele>
        <time>2026-03-20T10:09:09Z</time>
      </trkpt>
      <trkpt lat="43.38558" lon="6.45411">
        <ele>67.91</ele>
        <time>2026-03-20T10:09:30Z</time>
      </trkpt>
      <trkpt lat="43.38574" lon="6.45402">
        <ele>67.91</ele>
        <time>2026-03-20T10:09:49Z</time>
      </trkpt>
      <trkpt lat="43.38593" lon="6.4539">
        <ele>67.43</ele>
        <time>2026-03-20T10:10:10Z</time>
      </trkpt>
      <trkpt lat="43.38595" lon="6.45388">
        <ele>67.43</ele>
        <time>2026-03-20T10:10:12Z</time>
      </trkpt>
      <trkpt lat="43.38608" lon="6.45378">
        <ele>65.99</ele>
        <time>2026-03-20T10:10:29Z</time>
      </trkpt>
      <trkpt lat="43.38616" lon="6.45366">
        <ele>65.03</ele>
        <time>2026-03-20T10:10:43Z</time>
      </trkpt>
      <trkpt lat="43.38619" lon="6.45354">
        <ele>64.07</ele>
        <time>2026-03-20T10:11:01Z</time>
      </trkpt>
      <trkpt lat="43.38622" lon="6.45361">
        <ele>64.55</ele>
        <time>2026-03-20T10:11:17Z</time>
      </trkpt>
      <trkpt lat="43.38621" lon="6.45363">
        <ele>64.07</ele>
        <time>2026-03-20T10:11:43Z</time>
      </trkpt>
      <trkpt lat="43.3862" lon="6.45367">
        <ele>64.07</ele>
        <time>2026-03-20T10:12:14Z</time>
      </trkpt>
      <trkpt lat="43.3862" lon="6.45369">
        <ele>64.07</ele>
        <time>2026-03-20T10:12:29Z</time>
      </trkpt>
      <trkpt lat="43.38618" lon="6.45371">
        <ele>64.07</ele>
        <time>2026-03-20T10:12:56Z</time>
      </trkpt>
      <trkpt lat="43.38616" lon="6.45374">
        <ele>63.58</ele>
        <time>2026-03-20T10:13:05Z</time>
      </trkpt>
      <trkpt lat="43.38612" lon="6.45375">
        <ele>64.07</ele>
        <time>2026-03-20T10:13:20Z</time>
      </trkpt>
      <trkpt lat="43.38602" lon="6.45379">
        <ele>64.07</ele>
        <time>2026-03-20T10:13:43Z</time>
      </trkpt>
      <trkpt lat="43.38592" lon="6.45383">
        <ele>64.55</ele>
        <time>2026-03-20T10:13:55Z</time>
      </trkpt>
      <trkpt lat="43.38582" lon="6.45391">
        <ele>63.58</ele>
        <time>2026-03-20T10:14:08Z</time>
      </trkpt>
      <trkpt lat="43.38574" lon="6.45398">
        <ele>63.58</ele>
        <time>2026-03-20T10:14:20Z</time>
      </trkpt>
      <trkpt lat="43.38565" lon="6.45403">
        <ele>63.1</ele>
        <time>2026-03-20T10:14:32Z</time>
      </trkpt>
      <trkpt lat="43.38561" lon="6.45404">
        <ele>63.58</ele>
        <time>2026-03-20T10:14:37Z</time>
      </trkpt>
      <trkpt lat="43.38558" lon="6.45405">
        <ele>63.1</ele>
        <time>2026-03-20T10:14:40Z</time>
      </trkpt>
      <trkpt lat="43.38552" lon="6.45409">
        <ele>62.14</ele>
        <time>2026-03-20T10:14:48Z</time>
      </trkpt>
      <trkpt lat="43.38548" lon="6.45411">
        <ele>61.66</ele>
        <time>2026-03-20T10:14:56Z</time>
      </trkpt>
      <trkpt lat="43.38537" lon="6.45416">
        <ele>61.66</ele>
        <time>2026-03-20T10:15:09Z</time>
      </trkpt>
      <trkpt lat="43.38524" lon="6.4542">
        <ele>62.62</ele>
        <time>2026-03-20T10:15:25Z</time>
      </trkpt>
      <trkpt lat="43.38519" lon="6.45421">
        <ele>62.14</ele>
        <time>2026-03-20T10:15:39Z</time>
      </trkpt>
      <trkpt lat="43.38522" lon="6.45424">
        <ele>65.03</ele>
        <time>2026-03-20T10:15:59Z</time>
      </trkpt>
      <trkpt lat="43.38521" lon="6.45424">
        <ele>64.07</ele>
        <time>2026-03-20T10:16:19Z</time>
      </trkpt>
      <trkpt lat="43.38519" lon="6.45424">
        <ele>63.1</ele>
        <time>2026-03-20T10:16:46Z</time>
      </trkpt>
      <trkpt lat="43.38516" lon="6.45424">
        <ele>62.14</ele>
        <time>2026-03-20T10:17:08Z</time>
      </trkpt>
      <trkpt lat="43.38514" lon="6.45426">
        <ele>63.1</ele>
        <time>2026-03-20T10:17:27Z</time>
      </trkpt>
      <trkpt lat="43.38501" lon="6.45428">
        <ele>65.03</ele>
        <time>2026-03-20T10:17:40Z</time>
      </trkpt>
      <trkpt lat="43.38498" lon="6.45428">
        <ele>65.03</ele>
        <time>2026-03-20T10:17:43Z</time>
      </trkpt>
      <trkpt lat="43.38488" lon="6.45431">
        <ele>65.51</ele>
        <time>2026-03-20T10:17:53Z</time>
      </trkpt>
      <trkpt lat="43.38486" lon="6.45432">
        <ele>65.51</ele>
        <time>2026-03-20T10:17:55Z</time>
      </trkpt>
      <trkpt lat="43.38483" lon="6.45433">
        <ele>65.51</ele>
        <time>2026-03-20T10:17:58Z</time>
      </trkpt>
      <trkpt lat="43.38476" lon="6.45435">
        <ele>65.99</ele>
        <time>2026-03-20T10:18:05Z</time>
      </trkpt>
      <trkpt lat="43.38466" lon="6.45437">
        <ele>66.95</ele>
        <time>2026-03-20T10:18:16Z</time>
      </trkpt>
      <trkpt lat="43.38457" lon="6.45439">
        <ele>66.95</ele>
        <time>2026-03-20T10:18:30Z</time>
      </trkpt>
      <trkpt lat="43.38447" lon="6.45443">
        <ele>67.43</ele>
        <time>2026-03-20T10:18:41Z</time>
      </trkpt>
      <trkpt lat="43.38439" lon="6.45447">
        <ele>67.43</ele>
        <time>2026-03-20T10:18:50Z</time>
      </trkpt>
      <trkpt lat="43.38427" lon="6.45452">
        <ele>66.95</ele>
        <time>2026-03-20T10:19:03Z</time>
      </trkpt>
      <trkpt lat="43.38416" lon="6.45456">
        <ele>65.03</ele>
        <time>2026-03-20T10:19:16Z</time>
      </trkpt>
      <trkpt lat="43.38415" lon="6.45457">
        <ele>64.55</ele>
        <time>2026-03-20T10:19:37Z</time>
      </trkpt>
      <trkpt lat="43.38413" lon="6.45458">
        <ele>65.03</ele>
        <time>2026-03-20T10:19:40Z</time>
      </trkpt>
      <trkpt lat="43.38401" lon="6.4546">
        <ele>66.47</ele>
        <time>2026-03-20T10:19:53Z</time>
      </trkpt>
      <trkpt lat="43.38391" lon="6.45462">
        <ele>67.43</ele>
        <time>2026-03-20T10:20:03Z</time>
      </trkpt>
      <trkpt lat="43.38387" lon="6.45463">
        <ele>67.43</ele>
        <time>2026-03-20T10:20:09Z</time>
      </trkpt>
      <trkpt lat="43.38375" lon="6.45467">
        <ele>66.47</ele>
        <time>2026-03-20T10:20:22Z</time>
      </trkpt>
      <trkpt lat="43.38375" lon="6.45467">
        <ele>65.03</ele>
        <time>2026-03-20T10:20:30Z</time>
      </trkpt>
      <trkpt lat="43.38372" lon="6.45469">
        <ele>65.51</ele>
        <time>2026-03-20T10:20:34Z</time>
      </trkpt>
      <trkpt lat="43.38369" lon="6.45469">
        <ele>65.51</ele>
        <time>2026-03-20T10:20:37Z</time>
      </trkpt>
      <trkpt lat="43.38355" lon="6.45472">
        <ele>65.99</ele>
        <time>2026-03-20T10:20:52Z</time>
      </trkpt>
      <trkpt lat="43.38349" lon="6.45473">
        <ele>66.47</ele>
        <time>2026-03-20T10:20:58Z</time>
      </trkpt>
      <trkpt lat="43.38338" lon="6.45471">
        <ele>67.43</ele>
        <time>2026-03-20T10:21:09Z</time>
      </trkpt>
      <trkpt lat="43.38329" lon="6.45474">
        <ele>67.43</ele>
        <time>2026-03-20T10:21:19Z</time>
      </trkpt>
      <trkpt lat="43.38322" lon="6.45475">
        <ele>69.35</ele>
        <time>2026-03-20T10:21:29Z</time>
      </trkpt>
      <trkpt lat="43.38321" lon="6.45475">
        <ele>69.83</ele>
        <time>2026-03-20T10:21:31Z</time>
      </trkpt>
      <trkpt lat="43.38311" lon="6.45478">
        <ele>70.31</ele>
        <time>2026-03-20T10:21:43Z</time>
      </trkpt>
      <trkpt lat="43.38302" lon="6.45484">
        <ele>71.76</ele>
        <time>2026-03-20T10:21:56Z</time>
      </trkpt>
      <trkpt lat="43.38294" lon="6.45489">
        <ele>72.24</ele>
        <time>2026-03-20T10:22:07Z</time>
      </trkpt>
      <trkpt lat="43.38284" lon="6.45494">
        <ele>70.79</ele>
        <time>2026-03-20T10:22:19Z</time>
      </trkpt>
      <trkpt lat="43.38279" lon="6.45499">
        <ele>69.83</ele>
        <time>2026-03-20T10:22:30Z</time>
      </trkpt>
      <trkpt lat="43.38278" lon="6.45502">
        <ele>69.83</ele>
        <time>2026-03-20T10:22:43Z</time>
      </trkpt>
      <trkpt lat="43.38279" lon="6.45499">
        <ele>69.83</ele>
        <time>2026-03-20T10:23:08Z</time>
      </trkpt>
      <trkpt lat="43.38277" lon="6.45509">
        <ele>69.35</ele>
        <time>2026-03-20T10:23:19Z</time>
      </trkpt>
      <trkpt lat="43.38276" lon="6.45517">
        <ele>69.35</ele>
        <time>2026-03-20T10:23:25Z</time>
      </trkpt>
      <trkpt lat="43.38276" lon="6.45519">
        <ele>73.2</ele>
        <time>2026-03-20T10:23:40Z</time>
      </trkpt>
      <trkpt lat="43.38275" lon="6.4552">
        <ele>73.2</ele>
        <time>2026-03-20T10:23:44Z</time>
      </trkpt>
      <trkpt lat="43.38269" lon="6.45524">
        <ele>73.68</ele>
        <time>2026-03-20T10:23:53Z</time>
      </trkpt>
      <trkpt lat="43.38262" lon="6.45521">
        <ele>73.2</ele>
        <time>2026-03-20T10:24:03Z</time>
      </trkpt>
      <trkpt lat="43.3826" lon="6.45515">
        <ele>75.12</ele>
        <time>2026-03-20T10:24:32Z</time>
      </trkpt>
      <trkpt lat="43.38273" lon="6.4552">
        <ele>71.76</ele>
        <time>2026-03-20T10:24:45Z</time>
      </trkpt>
      <trkpt lat="43.38278" lon="6.45515">
        <ele>72.24</ele>
        <time>2026-03-20T10:24:57Z</time>
      </trkpt>
      <trkpt lat="43.38285" lon="6.45506">
        <ele>72.24</ele>
        <time>2026-03-20T10:25:09Z</time>
      </trkpt>
      <trkpt lat="43.38282" lon="6.45503">
        <ele>72.72</ele>
        <time>2026-03-20T10:25:26Z</time>
      </trkpt>
      <trkpt lat="43.38283" lon="6.45503">
        <ele>72.72</ele>
        <time>2026-03-20T10:25:51Z</time>
      </trkpt>
      <trkpt lat="43.38284" lon="6.45507">
        <ele>70.31</ele>
        <time>2026-03-20T10:26:06Z</time>
      </trkpt>
      <trkpt lat="43.38284" lon="6.45505">
        <ele>70.31</ele>
        <time>2026-03-20T10:26:34Z</time>
      </trkpt>
      <trkpt lat="43.38284" lon="6.45504">
        <ele>73.68</ele>
        <time>2026-03-20T10:27:11Z</time>
      </trkpt>
      <trkpt lat="43.38285" lon="6.45506">
        <ele>71.27</ele>
        <time>2026-03-20T10:27:38Z</time>
      </trkpt>
      <trkpt lat="43.38284" lon="6.45506">
        <ele>71.76</ele>
        <time>2026-03-20T10:28:01Z</time>
      </trkpt>
      <trkpt lat="43.38284" lon="6.45506">
        <ele>72.72</ele>
        <time>2026-03-20T10:28:20Z</time>
      </trkpt>
      <trkpt lat="43.38283" lon="6.45503">
        <ele>73.68</ele>
        <time>2026-03-20T10:28:44Z</time>
      </trkpt>
      <trkpt lat="43.38282" lon="6.45501">
        <ele>73.68</ele>
        <time>2026-03-20T10:29:04Z</time>
      </trkpt>
      <trkpt lat="43.38281" lon="6.455">
        <ele>74.64</ele>
        <time>2026-03-20T10:29:28Z</time>
      </trkpt>
      <trkpt lat="43.3828" lon="6.45505">
        <ele>73.2</ele>
        <time>2026-03-20T10:29:39Z</time>
      </trkpt>
      <trkpt lat="43.38278" lon="6.45517">
        <ele>71.27</ele>
        <time>2026-03-20T10:29:51Z</time>
      </trkpt>
      <trkpt lat="43.38276" lon="6.45524">
        <ele>71.27</ele>
        <time>2026-03-20T10:29:58Z</time>
      </trkpt>
      <trkpt lat="43.38271" lon="6.45537">
        <ele>69.35</ele>
        <time>2026-03-20T10:30:11Z</time>
      </trkpt>
      <trkpt lat="43.38268" lon="6.45541">
        <ele>68.87</ele>
        <time>2026-03-20T10:30:15Z</time>
      </trkpt>
      <trkpt lat="43.38262" lon="6.45555">
        <ele>65.99</ele>
        <time>2026-03-20T10:30:28Z</time>
      </trkpt>
      <trkpt lat="43.38256" lon="6.45569">
        <ele>65.51</ele>
        <time>2026-03-20T10:30:40Z</time>
      </trkpt>
      <trkpt lat="43.38253" lon="6.45569">
        <ele>68.39</ele>
        <time>2026-03-20T10:30:55Z</time>
      </trkpt>
      <trkpt lat="43.38252" lon="6.45579">
        <ele>67.43</ele>
        <time>2026-03-20T10:31:09Z</time>
      </trkpt>
      <trkpt lat="43.3825" lon="6.4559">
        <ele>68.39</ele>
        <time>2026-03-20T10:31:20Z</time>
      </trkpt>
      <trkpt lat="43.38249" lon="6.45598">
        <ele>68.87</ele>
        <time>2026-03-20T10:31:32Z</time>
      </trkpt>
      <trkpt lat="43.38244" lon="6.45602">
        <ele>69.35</ele>
        <time>2026-03-20T10:31:49Z</time>
      </trkpt>
      <trkpt lat="43.38243" lon="6.45595">
        <ele>66.95</ele>
        <time>2026-03-20T10:32:10Z</time>
      </trkpt>
      <trkpt lat="43.3824" lon="6.45602">
        <ele>65.99</ele>
        <time>2026-03-20T10:32:36Z</time>
      </trkpt>
      <trkpt lat="43.38241" lon="6.45609">
        <ele>66.47</ele>
        <time>2026-03-20T10:32:57Z</time>
      </trkpt>
      <trkpt lat="43.38242" lon="6.45616">
        <ele>65.99</ele>
        <time>2026-03-20T10:33:05Z</time>
      </trkpt>
      <trkpt lat="43.38239" lon="6.45627">
        <ele>67.91</ele>
        <time>2026-03-20T10:33:16Z</time>
      </trkpt>
      <trkpt lat="43.38235" lon="6.45639">
        <ele>68.39</ele>
        <time>2026-03-20T10:33:27Z</time>
      </trkpt>
      <trkpt lat="43.3823" lon="6.45654">
        <ele>72.72</ele>
        <time>2026-03-20T10:33:39Z</time>
      </trkpt>
      <trkpt lat="43.38229" lon="6.45668">
        <ele>73.68</ele>
        <time>2026-03-20T10:33:49Z</time>
      </trkpt>
      <trkpt lat="43.38229" lon="6.45679">
        <ele>75.12</ele>
        <time>2026-03-20T10:33:58Z</time>
      </trkpt>
      <trkpt lat="43.38229" lon="6.45695">
        <ele>75.12</ele>
        <time>2026-03-20T10:34:11Z</time>
      </trkpt>
      <trkpt lat="43.38229" lon="6.45708">
        <ele>75.6</ele>
        <time>2026-03-20T10:34:23Z</time>
      </trkpt>
      <trkpt lat="43.38231" lon="6.45721">
        <ele>75.6</ele>
        <time>2026-03-20T10:34:35Z</time>
      </trkpt>
      <trkpt lat="43.38231" lon="6.45722">
        <ele>75.6</ele>
        <time>2026-03-20T10:34:36Z</time>
      </trkpt>
      <trkpt lat="43.38234" lon="6.45723">
        <ele>74.64</ele>
        <time>2026-03-20T10:34:39Z</time>
      </trkpt>
      <trkpt lat="43.38242" lon="6.45722">
        <ele>72.72</ele>
        <time>2026-03-20T10:34:49Z</time>
      </trkpt>
      <trkpt lat="43.3825" lon="6.45732">
        <ele>71.27</ele>
        <time>2026-03-20T10:35:02Z</time>
      </trkpt>
      <trkpt lat="43.38254" lon="6.45736">
        <ele>72.72</ele>
        <time>2026-03-20T10:35:13Z</time>
      </trkpt>
      <trkpt lat="43.38253" lon="6.45736">
        <ele>73.2</ele>
        <time>2026-03-20T10:35:35Z</time>
      </trkpt>
      <trkpt lat="43.38249" lon="6.45736">
        <ele>73.2</ele>
        <time>2026-03-20T10:35:54Z</time>
      </trkpt>
      <trkpt lat="43.38245" lon="6.45739">
        <ele>73.68</ele>
        <time>2026-03-20T10:36:06Z</time>
      </trkpt>
      <trkpt lat="43.38246" lon="6.45743">
        <ele>74.16</ele>
        <time>2026-03-20T10:36:37Z</time>
      </trkpt>
      <trkpt lat="43.38247" lon="6.45741">
        <ele>73.68</ele>
        <time>2026-03-20T10:37:01Z</time>
      </trkpt>
      <trkpt lat="43.3824" lon="6.45741">
        <ele>71.27</ele>
        <time>2026-03-20T10:37:11Z</time>
      </trkpt>
      <trkpt lat="43.38234" lon="6.4575">
        <ele>71.27</ele>
        <time>2026-03-20T10:37:22Z</time>
      </trkpt>
      <trkpt lat="43.38228" lon="6.45754">
        <ele>71.27</ele>
        <time>2026-03-20T10:37:29Z</time>
      </trkpt>
      <trkpt lat="43.38225" lon="6.45754">
        <ele>70.79</ele>
        <time>2026-03-20T10:37:34Z</time>
      </trkpt>
      <trkpt lat="43.38222" lon="6.45773">
        <ele>72.24</ele>
        <time>2026-03-20T10:37:46Z</time>
      </trkpt>
      <trkpt lat="43.38221" lon="6.45785">
        <ele>74.64</ele>
        <time>2026-03-20T10:37:54Z</time>
      </trkpt>
      <trkpt lat="43.38219" lon="6.4579">
        <ele>74.64</ele>
        <time>2026-03-20T10:37:58Z</time>
      </trkpt>
      <trkpt lat="43.38218" lon="6.45796">
        <ele>74.16</ele>
        <time>2026-03-20T10:38:02Z</time>
      </trkpt>
      <trkpt lat="43.38212" lon="6.45812">
        <ele>74.64</ele>
        <time>2026-03-20T10:38:15Z</time>
      </trkpt>
      <trkpt lat="43.38209" lon="6.45822">
        <ele>75.6</ele>
        <time>2026-03-20T10:38:24Z</time>
      </trkpt>
      <trkpt lat="43.38209" lon="6.45827">
        <ele>75.6</ele>
        <time>2026-03-20T10:38:27Z</time>
      </trkpt>
      <trkpt lat="43.38207" lon="6.45843">
        <ele>76.56</ele>
        <time>2026-03-20T10:38:42Z</time>
      </trkpt>
      <trkpt lat="43.38203" lon="6.45859">
        <ele>76.56</ele>
        <time>2026-03-20T10:38:54Z</time>
      </trkpt>
      <trkpt lat="43.38199" lon="6.45874">
        <ele>75.6</ele>
        <time>2026-03-20T10:39:06Z</time>
      </trkpt>
      <trkpt lat="43.38195" lon="6.45891">
        <ele>75.6</ele>
        <time>2026-03-20T10:39:19Z</time>
      </trkpt>
      <trkpt lat="43.38192" lon="6.45906">
        <ele>75.6</ele>
        <time>2026-03-20T10:39:31Z</time>
      </trkpt>
      <trkpt lat="43.38187" lon="6.45918">
        <ele>74.16</ele>
        <time>2026-03-20T10:39:42Z</time>
      </trkpt>
      <trkpt lat="43.38185" lon="6.45927">
        <ele>74.64</ele>
        <time>2026-03-20T10:39:50Z</time>
      </trkpt>
      <trkpt lat="43.38182" lon="6.45935">
        <ele>73.68</ele>
        <time>2026-03-20T10:39:56Z</time>
      </trkpt>
      <trkpt lat="43.38177" lon="6.45943">
        <ele>73.68</ele>
        <time>2026-03-20T10:40:04Z</time>
      </trkpt>
      <trkpt lat="43.38172" lon="6.45949">
        <ele>73.2</ele>
        <time>2026-03-20T10:40:11Z</time>
      </trkpt>
      <trkpt lat="43.38161" lon="6.45956">
        <ele>72.72</ele>
        <time>2026-03-20T10:40:24Z</time>
      </trkpt>
      <trkpt lat="43.38152" lon="6.45961">
        <ele>73.2</ele>
        <time>2026-03-20T10:40:34Z</time>
      </trkpt>
      <trkpt lat="43.38144" lon="6.45968">
        <ele>72.72</ele>
        <time>2026-03-20T10:40:45Z</time>
      </trkpt>
      <trkpt lat="43.38137" lon="6.45978">
        <ele>74.64</ele>
        <time>2026-03-20T10:40:56Z</time>
      </trkpt>
      <trkpt lat="43.38128" lon="6.45988">
        <ele>76.08</ele>
        <time>2026-03-20T10:41:08Z</time>
      </trkpt>
      <trkpt lat="43.38121" lon="6.45996">
        <ele>76.56</ele>
        <time>2026-03-20T10:41:20Z</time>
      </trkpt>
      <trkpt lat="43.38112" lon="6.46006">
        <ele>78.48</ele>
        <time>2026-03-20T10:41:33Z</time>
      </trkpt>
      <trkpt lat="43.38102" lon="6.46014">
        <ele>78.97</ele>
        <time>2026-03-20T10:41:45Z</time>
      </trkpt>
      <trkpt lat="43.38095" lon="6.4602">
        <ele>80.41</ele>
        <time>2026-03-20T10:41:55Z</time>
      </trkpt>
      <trkpt lat="43.38094" lon="6.46021">
        <ele>80.41</ele>
        <time>2026-03-20T10:41:56Z</time>
      </trkpt>
      <trkpt lat="43.38085" lon="6.4603">
        <ele>81.37</ele>
        <time>2026-03-20T10:42:07Z</time>
      </trkpt>
      <trkpt lat="43.38076" lon="6.46039">
        <ele>81.37</ele>
        <time>2026-03-20T10:42:19Z</time>
      </trkpt>
      <trkpt lat="43.3807" lon="6.46044">
        <ele>80.41</ele>
        <time>2026-03-20T10:42:26Z</time>
      </trkpt>
      <trkpt lat="43.38064" lon="6.46056">
        <ele>78</ele>
        <time>2026-03-20T10:42:37Z</time>
      </trkpt>
      <trkpt lat="43.38063" lon="6.46069">
        <ele>77.52</ele>
        <time>2026-03-20T10:42:48Z</time>
      </trkpt>
      <trkpt lat="43.38063" lon="6.46085">
        <ele>77.04</ele>
        <time>2026-03-20T10:43:00Z</time>
      </trkpt>
      <trkpt lat="43.38058" lon="6.46103">
        <ele>75.6</ele>
        <time>2026-03-20T10:43:12Z</time>
      </trkpt>
      <trkpt lat="43.38056" lon="6.46118">
        <ele>74.64</ele>
        <time>2026-03-20T10:43:25Z</time>
      </trkpt>
      <trkpt lat="43.38055" lon="6.4613">
        <ele>74.64</ele>
        <time>2026-03-20T10:43:37Z</time>
      </trkpt>
      <trkpt lat="43.38053" lon="6.46142">
        <ele>73.68</ele>
        <time>2026-03-20T10:43:48Z</time>
      </trkpt>
      <trkpt lat="43.3805" lon="6.46147">
        <ele>73.2</ele>
        <time>2026-03-20T10:43:53Z</time>
      </trkpt>
      <trkpt lat="43.38043" lon="6.46158">
        <ele>72.24</ele>
        <time>2026-03-20T10:44:06Z</time>
      </trkpt>
      <trkpt lat="43.38033" lon="6.46165">
        <ele>73.2</ele>
        <time>2026-03-20T10:44:18Z</time>
      </trkpt>
      <trkpt lat="43.38032" lon="6.46165">
        <ele>73.2</ele>
        <time>2026-03-20T10:44:19Z</time>
      </trkpt>
      <trkpt lat="43.38029" lon="6.46167">
        <ele>73.2</ele>
        <time>2026-03-20T10:44:22Z</time>
      </trkpt>
      <trkpt lat="43.38017" lon="6.46172">
        <ele>74.16</ele>
        <time>2026-03-20T10:44:35Z</time>
      </trkpt>
      <trkpt lat="43.38011" lon="6.46178">
        <ele>76.08</ele>
        <time>2026-03-20T10:44:45Z</time>
      </trkpt>
      <trkpt lat="43.38009" lon="6.46181">
        <ele>76.08</ele>
        <time>2026-03-20T10:44:53Z</time>
      </trkpt>
      <trkpt lat="43.38005" lon="6.46187">
        <ele>75.12</ele>
        <time>2026-03-20T10:45:00Z</time>
      </trkpt>
      <trkpt lat="43.37998" lon="6.46193">
        <ele>75.12</ele>
        <time>2026-03-20T10:45:09Z</time>
      </trkpt>
      <trkpt lat="43.37991" lon="6.46205">
        <ele>78.48</ele>
        <time>2026-03-20T10:45:21Z</time>
      </trkpt>
      <trkpt lat="43.37987" lon="6.46213">
        <ele>79.45</ele>
        <time>2026-03-20T10:45:28Z</time>
      </trkpt>
      <trkpt lat="43.37979" lon="6.46226">
        <ele>79.45</ele>
        <time>2026-03-20T10:45:41Z</time>
      </trkpt>
      <trkpt lat="43.37973" lon="6.46239">
        <ele>80.41</ele>
        <time>2026-03-20T10:45:53Z</time>
      </trkpt>
      <trkpt lat="43.37967" lon="6.4625">
        <ele>80.89</ele>
        <time>2026-03-20T10:46:04Z</time>
      </trkpt>
      <trkpt lat="43.3796" lon="6.46262">
        <ele>81.37</ele>
        <time>2026-03-20T10:46:17Z</time>
      </trkpt>
      <trkpt lat="43.37953" lon="6.46276">
        <ele>80.41</ele>
        <time>2026-03-20T10:46:30Z</time>
      </trkpt>
      <trkpt lat="43.37948" lon="6.46284">
        <ele>79.93</ele>
        <time>2026-03-20T10:46:41Z</time>
      </trkpt>
      <trkpt lat="43.37944" lon="6.46289">
        <ele>79.93</ele>
        <time>2026-03-20T10:46:46Z</time>
      </trkpt>
      <trkpt lat="43.37939" lon="6.46297">
        <ele>79.93</ele>
        <time>2026-03-20T10:46:54Z</time>
      </trkpt>
      <trkpt lat="43.37937" lon="6.46308">
        <ele>80.89</ele>
        <time>2026-03-20T10:47:07Z</time>
      </trkpt>
      <trkpt lat="43.37937" lon="6.46308">
        <ele>80.41</ele>
        <time>2026-03-20T10:47:13Z</time>
      </trkpt>
      <trkpt lat="43.37926" lon="6.46315">
        <ele>80.41</ele>
        <time>2026-03-20T10:47:26Z</time>
      </trkpt>
      <trkpt lat="43.37916" lon="6.46319">
        <ele>78.97</ele>
        <time>2026-03-20T10:47:37Z</time>
      </trkpt>
      <trkpt lat="43.37906" lon="6.46322">
        <ele>78.97</ele>
        <time>2026-03-20T10:47:48Z</time>
      </trkpt>
      <trkpt lat="43.37896" lon="6.46325">
        <ele>79.93</ele>
        <time>2026-03-20T10:47:59Z</time>
      </trkpt>
      <trkpt lat="43.37884" lon="6.46328">
        <ele>80.89</ele>
        <time>2026-03-20T10:48:11Z</time>
      </trkpt>
      <trkpt lat="43.37884" lon="6.46331">
        <ele>81.37</ele>
        <time>2026-03-20T10:48:26Z</time>
      </trkpt>
      <trkpt lat="43.37874" lon="6.46334">
        <ele>82.33</ele>
        <time>2026-03-20T10:48:41Z</time>
      </trkpt>
      <trkpt lat="43.37862" lon="6.46333">
        <ele>82.33</ele>
        <time>2026-03-20T10:48:58Z</time>
      </trkpt>
      <trkpt lat="43.37856" lon="6.46333">
        <ele>82.33</ele>
        <time>2026-03-20T10:49:15Z</time>
      </trkpt>
      <trkpt lat="43.37855" lon="6.46332">
        <ele>82.33</ele>
        <time>2026-03-20T10:49:16Z</time>
      </trkpt>
      <trkpt lat="43.37843" lon="6.46331">
        <ele>81.37</ele>
        <time>2026-03-20T10:49:28Z</time>
      </trkpt>
      <trkpt lat="43.37832" lon="6.46326">
        <ele>82.33</ele>
        <time>2026-03-20T10:49:39Z</time>
      </trkpt>
      <trkpt lat="43.37825" lon="6.46325">
        <ele>82.81</ele>
        <time>2026-03-20T10:49:48Z</time>
      </trkpt>
      <trkpt lat="43.37815" lon="6.46325">
        <ele>82.33</ele>
        <time>2026-03-20T10:49:58Z</time>
      </trkpt>
      <trkpt lat="43.37808" lon="6.46327">
        <ele>81.37</ele>
        <time>2026-03-20T10:50:05Z</time>
      </trkpt>
      <trkpt lat="43.37805" lon="6.46329">
        <ele>81.37</ele>
        <time>2026-03-20T10:50:09Z</time>
      </trkpt>
      <trkpt lat="43.37793" lon="6.46331">
        <ele>81.85</ele>
        <time>2026-03-20T10:50:20Z</time>
      </trkpt>
      <trkpt lat="43.37783" lon="6.46333">
        <ele>81.85</ele>
        <time>2026-03-20T10:50:31Z</time>
      </trkpt>
      <trkpt lat="43.37773" lon="6.46337">
        <ele>83.29</ele>
        <time>2026-03-20T10:50:42Z</time>
      </trkpt>
      <trkpt lat="43.37765" lon="6.4634">
        <ele>82.33</ele>
        <time>2026-03-20T10:50:52Z</time>
      </trkpt>
      <trkpt lat="43.37761" lon="6.46342">
        <ele>81.85</ele>
        <time>2026-03-20T10:50:57Z</time>
      </trkpt>
      <trkpt lat="43.37751" lon="6.46351">
        <ele>83.29</ele>
        <time>2026-03-20T10:51:10Z</time>
      </trkpt>
      <trkpt lat="43.37744" lon="6.46361">
        <ele>82.33</ele>
        <time>2026-03-20T10:51:22Z</time>
      </trkpt>
      <trkpt lat="43.37738" lon="6.46369">
        <ele>82.81</ele>
        <time>2026-03-20T10:51:32Z</time>
      </trkpt>
      <trkpt lat="43.37732" lon="6.46381">
        <ele>83.29</ele>
        <time>2026-03-20T10:51:45Z</time>
      </trkpt>
      <trkpt lat="43.37728" lon="6.46384">
        <ele>83.29</ele>
        <time>2026-03-20T10:51:55Z</time>
      </trkpt>
      <trkpt lat="43.37729" lon="6.46383">
        <ele>82.81</ele>
        <time>2026-03-20T10:52:15Z</time>
      </trkpt>
      <trkpt lat="43.37724" lon="6.46393">
        <ele>83.29</ele>
        <time>2026-03-20T10:52:26Z</time>
      </trkpt>
      <trkpt lat="43.37722" lon="6.46403">
        <ele>82.81</ele>
        <time>2026-03-20T10:52:35Z</time>
      </trkpt>
      <trkpt lat="43.37719" lon="6.46414">
        <ele>84.73</ele>
        <time>2026-03-20T10:52:46Z</time>
      </trkpt>
      <trkpt lat="43.37717" lon="6.46426">
        <ele>86.18</ele>
        <time>2026-03-20T10:52:57Z</time>
      </trkpt>
      <trkpt lat="43.37716" lon="6.46434">
        <ele>88.1</ele>
        <time>2026-03-20T10:53:11Z</time>
      </trkpt>
      <trkpt lat="43.37712" lon="6.46445">
        <ele>87.62</ele>
        <time>2026-03-20T10:53:22Z</time>
      </trkpt>
      <trkpt lat="43.37707" lon="6.46455">
        <ele>88.1</ele>
        <time>2026-03-20T10:53:32Z</time>
      </trkpt>
      <trkpt lat="43.37706" lon="6.46457">
        <ele>87.62</ele>
        <time>2026-03-20T10:53:34Z</time>
      </trkpt>
      <trkpt lat="43.37699" lon="6.46465">
        <ele>87.14</ele>
        <time>2026-03-20T10:53:45Z</time>
      </trkpt>
      <trkpt lat="43.37692" lon="6.46471">
        <ele>87.14</ele>
        <time>2026-03-20T10:53:55Z</time>
      </trkpt>
      <trkpt lat="43.37683" lon="6.46476">
        <ele>87.62</ele>
        <time>2026-03-20T10:54:06Z</time>
      </trkpt>
      <trkpt lat="43.37676" lon="6.46481">
        <ele>88.1</ele>
        <time>2026-03-20T10:54:16Z</time>
      </trkpt>
      <trkpt lat="43.37665" lon="6.46484">
        <ele>88.1</ele>
        <time>2026-03-20T10:54:28Z</time>
      </trkpt>
      <trkpt lat="43.37655" lon="6.46486">
        <ele>89.54</ele>
        <time>2026-03-20T10:54:41Z</time>
      </trkpt>
      <trkpt lat="43.37649" lon="6.46491">
        <ele>89.06</ele>
        <time>2026-03-20T10:54:50Z</time>
      </trkpt>
      <trkpt lat="43.37641" lon="6.46501">
        <ele>87.62</ele>
        <time>2026-03-20T10:55:02Z</time>
      </trkpt>
      <trkpt lat="43.37639" lon="6.46505">
        <ele>87.62</ele>
        <time>2026-03-20T10:55:06Z</time>
      </trkpt>
      <trkpt lat="43.37637" lon="6.46506">
        <ele>87.62</ele>
        <time>2026-03-20T10:55:09Z</time>
      </trkpt>
      <trkpt lat="43.37628" lon="6.46514">
        <ele>88.1</ele>
        <time>2026-03-20T10:55:21Z</time>
      </trkpt>
      <trkpt lat="43.37616" lon="6.46516">
        <ele>87.62</ele>
        <time>2026-03-20T10:55:33Z</time>
      </trkpt>
      <trkpt lat="43.37608" lon="6.4652">
        <ele>87.62</ele>
        <time>2026-03-20T10:55:42Z</time>
      </trkpt>
      <trkpt lat="43.37605" lon="6.46523">
        <ele>88.58</ele>
        <time>2026-03-20T10:55:46Z</time>
      </trkpt>
      <trkpt lat="43.37601" lon="6.46534">
        <ele>90.5</ele>
        <time>2026-03-20T10:55:59Z</time>
      </trkpt>
      <trkpt lat="43.37596" lon="6.46542">
        <ele>89.06</ele>
        <time>2026-03-20T10:56:12Z</time>
      </trkpt>
      <trkpt lat="43.37589" lon="6.46547">
        <ele>90.02</ele>
        <time>2026-03-20T10:56:21Z</time>
      </trkpt>
      <trkpt lat="43.37588" lon="6.46555">
        <ele>90.98</ele>
        <time>2026-03-20T10:56:35Z</time>
      </trkpt>
      <trkpt lat="43.37594" lon="6.4656">
        <ele>90.98</ele>
        <time>2026-03-20T10:56:45Z</time>
      </trkpt>
      <trkpt lat="43.37603" lon="6.46569">
        <ele>91.46</ele>
        <time>2026-03-20T10:56:58Z</time>
      </trkpt>
      <trkpt lat="43.37611" lon="6.46578">
        <ele>91.46</ele>
        <time>2026-03-20T10:57:10Z</time>
      </trkpt>
      <trkpt lat="43.37613" lon="6.4658">
        <ele>91.94</ele>
        <time>2026-03-20T10:57:23Z</time>
      </trkpt>
      <trkpt lat="43.37617" lon="6.46583">
        <ele>91.94</ele>
        <time>2026-03-20T10:57:40Z</time>
      </trkpt>
      <trkpt lat="43.37624" lon="6.4659">
        <ele>92.42</ele>
        <time>2026-03-20T10:57:51Z</time>
      </trkpt>
      <trkpt lat="43.37624" lon="6.46592">
        <ele>91.94</ele>
        <time>2026-03-20T10:58:05Z</time>
      </trkpt>
      <trkpt lat="43.37621" lon="6.46592">
        <ele>91.94</ele>
        <time>2026-03-20T10:58:09Z</time>
      </trkpt>
      <trkpt lat="43.37618" lon="6.46601">
        <ele>91.46</ele>
        <time>2026-03-20T10:58:19Z</time>
      </trkpt>
      <trkpt lat="43.37619" lon="6.46612">
        <ele>90.02</ele>
        <time>2026-03-20T10:58:31Z</time>
      </trkpt>
      <trkpt lat="43.37617" lon="6.46619">
        <ele>90.5</ele>
        <time>2026-03-20T10:58:43Z</time>
      </trkpt>
      <trkpt lat="43.37618" lon="6.46622">
        <ele>90.5</ele>
        <time>2026-03-20T10:59:01Z</time>
      </trkpt>
      <trkpt lat="43.3762" lon="6.46622">
        <ele>91.94</ele>
        <time>2026-03-20T10:59:17Z</time>
      </trkpt>
      <trkpt lat="43.37622" lon="6.46618">
        <ele>91.46</ele>
        <time>2026-03-20T10:59:32Z</time>
      </trkpt>
      <trkpt lat="43.37619" lon="6.46619">
        <ele>90.98</ele>
        <time>2026-03-20T10:59:40Z</time>
      </trkpt>
      <trkpt lat="43.37613" lon="6.46617">
        <ele>91.46</ele>
        <time>2026-03-20T10:59:52Z</time>
      </trkpt>
      <trkpt lat="43.37614" lon="6.4662">
        <ele>90.98</ele>
        <time>2026-03-20T11:00:10Z</time>
      </trkpt>
      <trkpt lat="43.37616" lon="6.46621">
        <ele>88.58</ele>
        <time>2026-03-20T11:00:28Z</time>
      </trkpt>
      <trkpt lat="43.37623" lon="6.46615">
        <ele>88.58</ele>
        <time>2026-03-20T11:00:39Z</time>
      </trkpt>
      <trkpt lat="43.37619" lon="6.46607">
        <ele>90.02</ele>
        <time>2026-03-20T11:00:49Z</time>
      </trkpt>
      <trkpt lat="43.37621" lon="6.46602">
        <ele>90.02</ele>
        <time>2026-03-20T11:00:54Z</time>
      </trkpt>
      <trkpt lat="43.37627" lon="6.46597">
        <ele>89.54</ele>
        <time>2026-03-20T11:01:09Z</time>
      </trkpt>
      <trkpt lat="43.37628" lon="6.46597">
        <ele>89.54</ele>
        <time>2026-03-20T11:01:11Z</time>
      </trkpt>
      <trkpt lat="43.3763" lon="6.46597">
        <ele>89.06</ele>
        <time>2026-03-20T11:01:14Z</time>
      </trkpt>
      <trkpt lat="43.37638" lon="6.46601">
        <ele>88.1</ele>
        <time>2026-03-20T11:01:25Z</time>
      </trkpt>
      <trkpt lat="43.37646" lon="6.46606">
        <ele>88.58</ele>
        <time>2026-03-20T11:01:38Z</time>
      </trkpt>
      <trkpt lat="43.37654" lon="6.46611">
        <ele>88.58</ele>
        <time>2026-03-20T11:01:51Z</time>
      </trkpt>
      <trkpt lat="43.3766" lon="6.46621">
        <ele>86.66</ele>
        <time>2026-03-20T11:02:04Z</time>
      </trkpt>
      <trkpt lat="43.3766" lon="6.46622">
        <ele>86.18</ele>
        <time>2026-03-20T11:02:06Z</time>
      </trkpt>
      <trkpt lat="43.37665" lon="6.46632">
        <ele>86.66</ele>
        <time>2026-03-20T11:02:18Z</time>
      </trkpt>
      <trkpt lat="43.37665" lon="6.46635">
        <ele>87.14</ele>
        <time>2026-03-20T11:02:29Z</time>
      </trkpt>
      <trkpt lat="43.37666" lon="6.46642">
        <ele>84.73</ele>
        <time>2026-03-20T11:02:45Z</time>
      </trkpt>
      <trkpt lat="43.37666" lon="6.46645">
        <ele>84.73</ele>
        <time>2026-03-20T11:02:50Z</time>
      </trkpt>
      <trkpt lat="43.3767" lon="6.46656">
        <ele>83.29</ele>
        <time>2026-03-20T11:03:01Z</time>
      </trkpt>
      <trkpt lat="43.37673" lon="6.46664">
        <ele>83.77</ele>
        <time>2026-03-20T11:03:12Z</time>
      </trkpt>
      <trkpt lat="43.37674" lon="6.46671">
        <ele>83.29</ele>
        <time>2026-03-20T11:03:23Z</time>
      </trkpt>
      <trkpt lat="43.37674" lon="6.46669">
        <ele>83.29</ele>
        <time>2026-03-20T11:03:39Z</time>
      </trkpt>
      <trkpt lat="43.37674" lon="6.46676">
        <ele>83.29</ele>
        <time>2026-03-20T11:03:54Z</time>
      </trkpt>
      <trkpt lat="43.37678" lon="6.46685">
        <ele>83.29</ele>
        <time>2026-03-20T11:04:05Z</time>
      </trkpt>
      <trkpt lat="43.37681" lon="6.46697">
        <ele>83.29</ele>
        <time>2026-03-20T11:04:17Z</time>
      </trkpt>
      <trkpt lat="43.37685" lon="6.46707">
        <ele>83.29</ele>
        <time>2026-03-20T11:04:29Z</time>
      </trkpt>
      <trkpt lat="43.37691" lon="6.46718">
        <ele>82.33</ele>
        <time>2026-03-20T11:04:41Z</time>
      </trkpt>
      <trkpt lat="43.37698" lon="6.46729">
        <ele>83.29</ele>
        <time>2026-03-20T11:04:53Z</time>
      </trkpt>
      <trkpt lat="43.37702" lon="6.46738">
        <ele>84.25</ele>
        <time>2026-03-20T11:05:04Z</time>
      </trkpt>
      <trkpt lat="43.37708" lon="6.46747">
        <ele>84.73</ele>
        <time>2026-03-20T11:05:16Z</time>
      </trkpt>
      <trkpt lat="43.37714" lon="6.46751">
        <ele>84.25</ele>
        <time>2026-03-20T11:05:25Z</time>
      </trkpt>
      <trkpt lat="43.37721" lon="6.4676">
        <ele>84.73</ele>
        <time>2026-03-20T11:05:36Z</time>
      </trkpt>
      <trkpt lat="43.37725" lon="6.46772">
        <ele>86.66</ele>
        <time>2026-03-20T11:05:46Z</time>
      </trkpt>
      <trkpt lat="43.3773" lon="6.4678">
        <ele>86.18</ele>
        <time>2026-03-20T11:05:55Z</time>
      </trkpt>
      <trkpt lat="43.37733" lon="6.46786">
        <ele>86.18</ele>
        <time>2026-03-20T11:06:02Z</time>
      </trkpt>
      <trkpt lat="43.37736" lon="6.46791">
        <ele>85.69</ele>
        <time>2026-03-20T11:06:09Z</time>
      </trkpt>
      <trkpt lat="43.37742" lon="6.46802">
        <ele>86.18</ele>
        <time>2026-03-20T11:06:20Z</time>
      </trkpt>
      <trkpt lat="43.37747" lon="6.46808">
        <ele>84.73</ele>
        <time>2026-03-20T11:06:29Z</time>
      </trkpt>
      <trkpt lat="43.37749" lon="6.46816">
        <ele>83.29</ele>
        <time>2026-03-20T11:06:44Z</time>
      </trkpt>
      <trkpt lat="43.37753" lon="6.46824">
        <ele>81.85</ele>
        <time>2026-03-20T11:06:55Z</time>
      </trkpt>
      <trkpt lat="43.37757" lon="6.4683">
        <ele>82.33</ele>
        <time>2026-03-20T11:07:05Z</time>
      </trkpt>
      <trkpt lat="43.37758" lon="6.46833">
        <ele>82.33</ele>
        <time>2026-03-20T11:07:11Z</time>
      </trkpt>
      <trkpt lat="43.37766" lon="6.46837">
        <ele>82.33</ele>
        <time>2026-03-20T11:07:22Z</time>
      </trkpt>
      <trkpt lat="43.37771" lon="6.46836">
        <ele>83.29</ele>
        <time>2026-03-20T11:07:36Z</time>
      </trkpt>
      <trkpt lat="43.37779" lon="6.46841">
        <ele>83.29</ele>
        <time>2026-03-20T11:07:50Z</time>
      </trkpt>
      <trkpt lat="43.37788" lon="6.46848">
        <ele>83.29</ele>
        <time>2026-03-20T11:08:04Z</time>
      </trkpt>
      <trkpt lat="43.37797" lon="6.46849">
        <ele>83.29</ele>
        <time>2026-03-20T11:08:17Z</time>
      </trkpt>
      <trkpt lat="43.37806" lon="6.46848">
        <ele>82.81</ele>
        <time>2026-03-20T11:08:29Z</time>
      </trkpt>
      <trkpt lat="43.37813" lon="6.46846">
        <ele>83.77</ele>
        <time>2026-03-20T11:08:41Z</time>
      </trkpt>
      <trkpt lat="43.37818" lon="6.46843">
        <ele>83.77</ele>
        <time>2026-03-20T11:08:51Z</time>
      </trkpt>
      <trkpt lat="43.37829" lon="6.46839">
        <ele>82.33</ele>
        <time>2026-03-20T11:09:06Z</time>
      </trkpt>
      <trkpt lat="43.37836" lon="6.46839">
        <ele>83.77</ele>
        <time>2026-03-20T11:09:15Z</time>
      </trkpt>
      <trkpt lat="43.37842" lon="6.46845">
        <ele>82.81</ele>
        <time>2026-03-20T11:09:25Z</time>
      </trkpt>
      <trkpt lat="43.37844" lon="6.46848">
        <ele>83.29</ele>
        <time>2026-03-20T11:09:40Z</time>
      </trkpt>
      <trkpt lat="43.37844" lon="6.46841">
        <ele>84.73</ele>
        <time>2026-03-20T11:10:20Z</time>
      </trkpt>
      <trkpt lat="43.37848" lon="6.46852">
        <ele>84.25</ele>
        <time>2026-03-20T11:10:47Z</time>
      </trkpt>
      <trkpt lat="43.37854" lon="6.46864">
        <ele>83.77</ele>
        <time>2026-03-20T11:11:00Z</time>
      </trkpt>
      <trkpt lat="43.3786" lon="6.46873">
        <ele>83.29</ele>
        <time>2026-03-20T11:11:12Z</time>
      </trkpt>
      <trkpt lat="43.37862" lon="6.46876">
        <ele>82.81</ele>
        <time>2026-03-20T11:11:17Z</time>
      </trkpt>
      <trkpt lat="43.37872" lon="6.46883">
        <ele>82.33</ele>
        <time>2026-03-20T11:11:29Z</time>
      </trkpt>
      <trkpt lat="43.3788" lon="6.46889">
        <ele>82.81</ele>
        <time>2026-03-20T11:11:40Z</time>
      </trkpt>
      <trkpt lat="43.37885" lon="6.46893">
        <ele>83.29</ele>
        <time>2026-03-20T11:11:50Z</time>
      </trkpt>
      <trkpt lat="43.37892" lon="6.46901">
        <ele>83.29</ele>
        <time>2026-03-20T11:12:02Z</time>
      </trkpt>
      <trkpt lat="43.37892" lon="6.46902">
        <ele>84.73</ele>
        <time>2026-03-20T11:12:19Z</time>
      </trkpt>
      <trkpt lat="43.37898" lon="6.46906">
        <ele>84.25</ele>
        <time>2026-03-20T11:12:32Z</time>
      </trkpt>
      <trkpt lat="43.37901" lon="6.46911">
        <ele>83.29</ele>
        <time>2026-03-20T11:12:44Z</time>
      </trkpt>
      <trkpt lat="43.37904" lon="6.46912">
        <ele>84.73</ele>
        <time>2026-03-20T11:12:58Z</time>
      </trkpt>
      <trkpt lat="43.37909" lon="6.46918">
        <ele>85.21</ele>
        <time>2026-03-20T11:13:09Z</time>
      </trkpt>
      <trkpt lat="43.37915" lon="6.46924">
        <ele>85.69</ele>
        <time>2026-03-20T11:13:20Z</time>
      </trkpt>
      <trkpt lat="43.37921" lon="6.46931">
        <ele>86.18</ele>
        <time>2026-03-20T11:13:31Z</time>
      </trkpt>
      <trkpt lat="43.37924" lon="6.46933">
        <ele>86.18</ele>
        <time>2026-03-20T11:13:38Z</time>
      </trkpt>
      <trkpt lat="43.37934" lon="6.46934">
        <ele>86.18</ele>
        <time>2026-03-20T11:13:50Z</time>
      </trkpt>
      <trkpt lat="43.37938" lon="6.46937">
        <ele>84.73</ele>
        <time>2026-03-20T11:14:02Z</time>
      </trkpt>
      <trkpt lat="43.37934" lon="6.46932">
        <ele>84.73</ele>
        <time>2026-03-20T11:14:14Z</time>
      </trkpt>
      <trkpt lat="43.37925" lon="6.4693">
        <ele>84.73</ele>
        <time>2026-03-20T11:14:25Z</time>
      </trkpt>
      <trkpt lat="43.37919" lon="6.46934">
        <ele>85.69</ele>
        <time>2026-03-20T11:14:39Z</time>
      </trkpt>
      <trkpt lat="43.3792" lon="6.46941">
        <ele>86.18</ele>
        <time>2026-03-20T11:14:52Z</time>
      </trkpt>
      <trkpt lat="43.37921" lon="6.46946">
        <ele>85.21</ele>
        <time>2026-03-20T11:15:03Z</time>
      </trkpt>
      <trkpt lat="43.37921" lon="6.46947">
        <ele>85.21</ele>
        <time>2026-03-20T11:15:04Z</time>
      </trkpt>
      <trkpt lat="43.3792" lon="6.46956">
        <ele>86.18</ele>
        <time>2026-03-20T11:15:14Z</time>
      </trkpt>
      <trkpt lat="43.37922" lon="6.46964">
        <ele>85.21</ele>
        <time>2026-03-20T11:15:26Z</time>
      </trkpt>
      <trkpt lat="43.37924" lon="6.46972">
        <ele>86.18</ele>
        <time>2026-03-20T11:15:38Z</time>
      </trkpt>
      <trkpt lat="43.37924" lon="6.4698">
        <ele>85.69</ele>
        <time>2026-03-20T11:15:52Z</time>
      </trkpt>
      <trkpt lat="43.37923" lon="6.46982">
        <ele>87.14</ele>
        <time>2026-03-20T11:16:17Z</time>
      </trkpt>
      <trkpt lat="43.37923" lon="6.46981">
        <ele>87.62</ele>
        <time>2026-03-20T11:16:38Z</time>
      </trkpt>
      <trkpt lat="43.37925" lon="6.46984">
        <ele>87.14</ele>
        <time>2026-03-20T11:16:52Z</time>
      </trkpt>
      <trkpt lat="43.37927" lon="6.46984">
        <ele>88.58</ele>
        <time>2026-03-20T11:17:18Z</time>
      </trkpt>
      <trkpt lat="43.37926" lon="6.46986">
        <ele>92.42</ele>
        <time>2026-03-20T11:17:49Z</time>
      </trkpt>
      <trkpt lat="43.37925" lon="6.46985">
        <ele>92.9</ele>
        <time>2026-03-20T11:18:25Z</time>
      </trkpt>
      <trkpt lat="43.37926" lon="6.46985">
        <ele>90.98</ele>
        <time>2026-03-20T11:18:55Z</time>
      </trkpt>
      <trkpt lat="43.37925" lon="6.46984">
        <ele>88.1</ele>
        <time>2026-03-20T11:19:28Z</time>
      </trkpt>
      <trkpt lat="43.37924" lon="6.46982">
        <ele>89.06</ele>
        <time>2026-03-20T11:20:03Z</time>
      </trkpt>
      <trkpt lat="43.37923" lon="6.46982">
        <ele>88.1</ele>
        <time>2026-03-20T11:20:35Z</time>
      </trkpt>
      <trkpt lat="43.37929" lon="6.46981">
        <ele>90.5</ele>
        <time>2026-03-20T11:21:05Z</time>
      </trkpt>
      <trkpt lat="43.37923" lon="6.46982">
        <ele>90.5</ele>
        <time>2026-03-20T11:21:33Z</time>
      </trkpt>
      <trkpt lat="43.37926" lon="6.46984">
        <ele>91.46</ele>
        <time>2026-03-20T11:21:57Z</time>
      </trkpt>
      <trkpt lat="43.37927" lon="6.46985">
        <ele>91.94</ele>
        <time>2026-03-20T11:22:33Z</time>
      </trkpt>
      <trkpt lat="43.37924" lon="6.46984">
        <ele>91.94</ele>
        <time>2026-03-20T11:23:08Z</time>
      </trkpt>
      <trkpt lat="43.37925" lon="6.46985">
        <ele>90.98</ele>
        <time>2026-03-20T11:23:48Z</time>
      </trkpt>
      <trkpt lat="43.37925" lon="6.46984">
        <ele>87.62</ele>
        <time>2026-03-20T11:24:19Z</time>
      </trkpt>
      <trkpt lat="43.37927" lon="6.46984">
        <ele>88.58</ele>
        <time>2026-03-20T11:24:54Z</time>
      </trkpt>
      <trkpt lat="43.37927" lon="6.46983">
        <ele>90.5</ele>
        <time>2026-03-20T11:25:28Z</time>
      </trkpt>
      <trkpt lat="43.37925" lon="6.46987">
        <ele>88.1</ele>
        <time>2026-03-20T11:26:02Z</time>
      </trkpt>
      <trkpt lat="43.37925" lon="6.46982">
        <ele>89.06</ele>
        <time>2026-03-20T11:26:38Z</time>
      </trkpt>
      <trkpt lat="43.37924" lon="6.46987">
        <ele>90.02</ele>
        <time>2026-03-20T11:27:13Z</time>
      </trkpt>
      <trkpt lat="43.37926" lon="6.46984">
        <ele>87.14</ele>
        <time>2026-03-20T11:27:41Z</time>
      </trkpt>
      <trkpt lat="43.37926" lon="6.46983">
        <ele>86.66</ele>
        <time>2026-03-20T11:28:16Z</time>
      </trkpt>
      <trkpt lat="43.37926" lon="6.46984">
        <ele>89.54</ele>
        <time>2026-03-20T11:28:48Z</time>
      </trkpt>
      <trkpt lat="43.37927" lon="6.46985">
        <ele>91.46</ele>
        <time>2026-03-20T11:29:17Z</time>
      </trkpt>
      <trkpt lat="43.37924" lon="6.46982">
        <ele>90.02</ele>
        <time>2026-03-20T11:29:45Z</time>
      </trkpt>
      <trkpt lat="43.37929" lon="6.46984">
        <ele>88.1</ele>
        <time>2026-03-20T11:30:22Z</time>
      </trkpt>
      <trkpt lat="43.37927" lon="6.46984">
        <ele>88.58</ele>
        <time>2026-03-20T11:30:56Z</time>
      </trkpt>
      <trkpt lat="43.37924" lon="6.46985">
        <ele>89.06</ele>
        <time>2026-03-20T11:31:38Z</time>
      </trkpt>
      <trkpt lat="43.37923" lon="6.46984">
        <ele>90.02</ele>
        <time>2026-03-20T11:32:10Z</time>
      </trkpt>
      <trkpt lat="43.37924" lon="6.46984">
        <ele>89.06</ele>
        <time>2026-03-20T11:32:39Z</time>
      </trkpt>
      <trkpt lat="43.37926" lon="6.46987">
        <ele>91.46</ele>
        <time>2026-03-20T11:33:13Z</time>
      </trkpt>
      <trkpt lat="43.37924" lon="6.46983">
        <ele>90.5</ele>
        <time>2026-03-20T11:33:53Z</time>
      </trkpt>
      <trkpt lat="43.37925" lon="6.46983">
        <ele>89.54</ele>
        <time>2026-03-20T11:34:23Z</time>
      </trkpt>
      <trkpt lat="43.37924" lon="6.46982">
        <ele>91.46</ele>
        <time>2026-03-20T11:34:59Z</time>
      </trkpt>
      <trkpt lat="43.37925" lon="6.46984">
        <ele>90.5</ele>
        <time>2026-03-20T11:35:35Z</time>
      </trkpt>
      <trkpt lat="43.37928" lon="6.46984">
        <ele>90.02</ele>
        <time>2026-03-20T11:36:10Z</time>
      </trkpt>
      <trkpt lat="43.37926" lon="6.46985">
        <ele>90.5</ele>
        <time>2026-03-20T11:36:46Z</time>
      </trkpt>
      <trkpt lat="43.37924" lon="6.46984">
        <ele>89.06</ele>
        <time>2026-03-20T11:37:18Z</time>
      </trkpt>
      <trkpt lat="43.37927" lon="6.46984">
        <ele>89.54</ele>
        <time>2026-03-20T11:37:52Z</time>
      </trkpt>
      <trkpt lat="43.37925" lon="6.46984">
        <ele>88.58</ele>
        <time>2026-03-20T11:38:36Z</time>
      </trkpt>
      <trkpt lat="43.37925" lon="6.46986">
        <ele>89.06</ele>
        <time>2026-03-20T11:39:12Z</time>
      </trkpt>
      <trkpt lat="43.37926" lon="6.46983">
        <ele>89.54</ele>
        <time>2026-03-20T11:39:48Z</time>
      </trkpt>
      <trkpt lat="43.37927" lon="6.46987">
        <ele>89.06</ele>
        <time>2026-03-20T11:40:21Z</time>
      </trkpt>
      <trkpt lat="43.37925" lon="6.46985">
        <ele>88.1</ele>
        <time>2026-03-20T11:40:53Z</time>
      </trkpt>
      <trkpt lat="43.37923" lon="6.46983">
        <ele>90.02</ele>
        <time>2026-03-20T11:41:32Z</time>
      </trkpt>
      <trkpt lat="43.37924" lon="6.46985">
        <ele>89.54</ele>
        <time>2026-03-20T11:42:07Z</time>
      </trkpt>
      <trkpt lat="43.37925" lon="6.46984">
        <ele>90.5</ele>
        <time>2026-03-20T11:42:48Z</time>
      </trkpt>
      <trkpt lat="43.37925" lon="6.46984">
        <ele>90.5</ele>
        <time>2026-03-20T11:43:29Z</time>
      </trkpt>
      <trkpt lat="43.37927" lon="6.46983">
        <ele>88.58</ele>
        <time>2026-03-20T11:44:10Z</time>
      </trkpt>
      <trkpt lat="43.37928" lon="6.46983">
        <ele>90.02</ele>
        <time>2026-03-20T11:44:46Z</time>
      </trkpt>
      <trkpt lat="43.37927" lon="6.46983">
        <ele>90.5</ele>
        <time>2026-03-20T11:45:22Z</time>
      </trkpt>
      <trkpt lat="43.37925" lon="6.46982">
        <ele>90.02</ele>
        <time>2026-03-20T11:45:53Z</time>
      </trkpt>
      <trkpt lat="43.37927" lon="6.46985">
        <ele>90.98</ele>
        <time>2026-03-20T11:46:30Z</time>
      </trkpt>
      <trkpt lat="43.37924" lon="6.46982">
        <ele>93.39</ele>
        <time>2026-03-20T11:47:01Z</time>
      </trkpt>
      <trkpt lat="43.37924" lon="6.46984">
        <ele>90.5</ele>
        <time>2026-03-20T11:47:36Z</time>
      </trkpt>
      <trkpt lat="43.37925" lon="6.46982">
        <ele>88.1</ele>
        <time>2026-03-20T11:48:07Z</time>
      </trkpt>
      <trkpt lat="43.37925" lon="6.46982">
        <ele>90.02</ele>
        <time>2026-03-20T11:48:42Z</time>
      </trkpt>
      <trkpt lat="43.37926" lon="6.46984">
        <ele>89.06</ele>
        <time>2026-03-20T11:49:15Z</time>
      </trkpt>
      <trkpt lat="43.37927" lon="6.46985">
        <ele>90.02</ele>
        <time>2026-03-20T11:49:48Z</time>
      </trkpt>
      <trkpt lat="43.37925" lon="6.46983">
        <ele>89.06</ele>
        <time>2026-03-20T11:50:20Z</time>
      </trkpt>
      <trkpt lat="43.37925" lon="6.46983">
        <ele>90.02</ele>
        <time>2026-03-20T11:50:47Z</time>
      </trkpt>
      <trkpt lat="43.37925" lon="6.46982">
        <ele>89.06</ele>
        <time>2026-03-20T11:51:22Z</time>
      </trkpt>
      <trkpt lat="43.37926" lon="6.46981">
        <ele>90.98</ele>
        <time>2026-03-20T11:51:51Z</time>
      </trkpt>
      <trkpt lat="43.37924" lon="6.46982">
        <ele>89.54</ele>
        <time>2026-03-20T11:52:27Z</time>
      </trkpt>
      <trkpt lat="43.37925" lon="6.46982">
        <ele>88.1</ele>
        <time>2026-03-20T11:52:58Z</time>
      </trkpt>
      <trkpt lat="43.37926" lon="6.46981">
        <ele>89.06</ele>
        <time>2026-03-20T11:53:25Z</time>
      </trkpt>
      <trkpt lat="43.37925" lon="6.46981">
        <ele>88.1</ele>
        <time>2026-03-20T11:54:04Z</time>
      </trkpt>
      <trkpt lat="43.37925" lon="6.46982">
        <ele>84.73</ele>
        <time>2026-03-20T11:54:40Z</time>
      </trkpt>
      <trkpt lat="43.37926" lon="6.46984">
        <ele>90.02</ele>
        <time>2026-03-20T11:55:15Z</time>
      </trkpt>
      <trkpt lat="43.37927" lon="6.46981">
        <ele>89.06</ele>
        <time>2026-03-20T11:55:56Z</time>
      </trkpt>
      <trkpt lat="43.37926" lon="6.46978">
        <ele>87.14</ele>
        <time>2026-03-20T11:56:27Z</time>
      </trkpt>
      <trkpt lat="43.37927" lon="6.46985">
        <ele>90.98</ele>
        <time>2026-03-20T11:57:04Z</time>
      </trkpt>
      <trkpt lat="43.37927" lon="6.46983">
        <ele>90.02</ele>
        <time>2026-03-20T11:57:34Z</time>
      </trkpt>
      <trkpt lat="43.37928" lon="6.46982">
        <ele>93.39</ele>
        <time>2026-03-20T11:58:20Z</time>
      </trkpt>
      <trkpt lat="43.37928" lon="6.46984">
        <ele>92.9</ele>
        <time>2026-03-20T11:59:02Z</time>
      </trkpt>
      <trkpt lat="43.37928" lon="6.46984">
        <ele>93.87</ele>
        <time>2026-03-20T11:59:44Z</time>
      </trkpt>
      <trkpt lat="43.37926" lon="6.46982">
        <ele>93.39</ele>
        <time>2026-03-20T12:00:05Z</time>
      </trkpt>
      <trkpt lat="43.37921" lon="6.46981">
        <ele>91.46</ele>
        <time>2026-03-20T12:00:20Z</time>
      </trkpt>
      <trkpt lat="43.37921" lon="6.46982">
        <ele>90.02</ele>
        <time>2026-03-20T12:00:39Z</time>
      </trkpt>
      <trkpt lat="43.37921" lon="6.46981">
        <ele>90.5</ele>
        <time>2026-03-20T12:01:06Z</time>
      </trkpt>
      <trkpt lat="43.37922" lon="6.46979">
        <ele>89.54</ele>
        <time>2026-03-20T12:01:35Z</time>
      </trkpt>
      <trkpt lat="43.37928" lon="6.46974">
        <ele>88.1</ele>
        <time>2026-03-20T12:02:06Z</time>
      </trkpt>
      <trkpt lat="43.37925" lon="6.46964">
        <ele>86.66</ele>
        <time>2026-03-20T12:02:20Z</time>
      </trkpt>
      <trkpt lat="43.37921" lon="6.4696">
        <ele>84.25</ele>
        <time>2026-03-20T12:02:35Z</time>
      </trkpt>
      <trkpt lat="43.37918" lon="6.46954">
        <ele>83.77</ele>
        <time>2026-03-20T12:03:00Z</time>
      </trkpt>
      <trkpt lat="43.37918" lon="6.46952">
        <ele>83.29</ele>
        <time>2026-03-20T12:03:05Z</time>
      </trkpt>
      <trkpt lat="43.37918" lon="6.46943">
        <ele>82.81</ele>
        <time>2026-03-20T12:03:16Z</time>
      </trkpt>
      <trkpt lat="43.37919" lon="6.46933">
        <ele>83.29</ele>
        <time>2026-03-20T12:03:30Z</time>
      </trkpt>
      <trkpt lat="43.37921" lon="6.46928">
        <ele>83.77</ele>
        <time>2026-03-20T12:03:39Z</time>
      </trkpt>
      <trkpt lat="43.37928" lon="6.46932">
        <ele>82.81</ele>
        <time>2026-03-20T12:03:53Z</time>
      </trkpt>
      <trkpt lat="43.37937" lon="6.46933">
        <ele>82.33</ele>
        <time>2026-03-20T12:04:06Z</time>
      </trkpt>
      <trkpt lat="43.37945" lon="6.46936">
        <ele>83.77</ele>
        <time>2026-03-20T12:04:19Z</time>
      </trkpt>
      <trkpt lat="43.37955" lon="6.46938">
        <ele>83.29</ele>
        <time>2026-03-20T12:04:34Z</time>
      </trkpt>
      <trkpt lat="43.37962" lon="6.46941">
        <ele>83.29</ele>
        <time>2026-03-20T12:04:44Z</time>
      </trkpt>
      <trkpt lat="43.3797" lon="6.46944">
        <ele>83.77</ele>
        <time>2026-03-20T12:04:55Z</time>
      </trkpt>
      <trkpt lat="43.37977" lon="6.46949">
        <ele>83.29</ele>
        <time>2026-03-20T12:05:07Z</time>
      </trkpt>
      <trkpt lat="43.37985" lon="6.46953">
        <ele>84.25</ele>
        <time>2026-03-20T12:05:18Z</time>
      </trkpt>
      <trkpt lat="43.3799" lon="6.46956">
        <ele>83.77</ele>
        <time>2026-03-20T12:05:26Z</time>
      </trkpt>
      <trkpt lat="43.37994" lon="6.46962">
        <ele>84.25</ele>
        <time>2026-03-20T12:05:38Z</time>
      </trkpt>
      <trkpt lat="43.37998" lon="6.46968">
        <ele>84.25</ele>
        <time>2026-03-20T12:05:49Z</time>
      </trkpt>
      <trkpt lat="43.38005" lon="6.46976">
        <ele>83.29</ele>
        <time>2026-03-20T12:06:02Z</time>
      </trkpt>
      <trkpt lat="43.38008" lon="6.46978">
        <ele>83.29</ele>
        <time>2026-03-20T12:06:07Z</time>
      </trkpt>
      <trkpt lat="43.38017" lon="6.46986">
        <ele>83.29</ele>
        <time>2026-03-20T12:06:22Z</time>
      </trkpt>
      <trkpt lat="43.38021" lon="6.46991">
        <ele>83.29</ele>
        <time>2026-03-20T12:06:33Z</time>
      </trkpt>
      <trkpt lat="43.38026" lon="6.47">
        <ele>82.81</ele>
        <time>2026-03-20T12:06:47Z</time>
      </trkpt>
      <trkpt lat="43.38029" lon="6.47012">
        <ele>82.81</ele>
        <time>2026-03-20T12:07:00Z</time>
      </trkpt>
      <trkpt lat="43.3803" lon="6.47018">
        <ele>80.89</ele>
        <time>2026-03-20T12:07:15Z</time>
      </trkpt>
      <trkpt lat="43.38032" lon="6.47027">
        <ele>82.81</ele>
        <time>2026-03-20T12:07:27Z</time>
      </trkpt>
      <trkpt lat="43.38038" lon="6.47034">
        <ele>84.73</ele>
        <time>2026-03-20T12:07:39Z</time>
      </trkpt>
      <trkpt lat="43.38043" lon="6.47041">
        <ele>83.77</ele>
        <time>2026-03-20T12:07:49Z</time>
      </trkpt>
      <trkpt lat="43.38047" lon="6.47044">
        <ele>83.29</ele>
        <time>2026-03-20T12:07:55Z</time>
      </trkpt>
      <trkpt lat="43.38057" lon="6.47049">
        <ele>83.77</ele>
        <time>2026-03-20T12:08:09Z</time>
      </trkpt>
      <trkpt lat="43.38067" lon="6.47051">
        <ele>83.77</ele>
        <time>2026-03-20T12:08:20Z</time>
      </trkpt>
      <trkpt lat="43.38075" lon="6.47056">
        <ele>82.81</ele>
        <time>2026-03-20T12:08:32Z</time>
      </trkpt>
      <trkpt lat="43.38078" lon="6.47059">
        <ele>83.77</ele>
        <time>2026-03-20T12:08:38Z</time>
      </trkpt>
      <trkpt lat="43.38088" lon="6.47065">
        <ele>83.77</ele>
        <time>2026-03-20T12:08:50Z</time>
      </trkpt>
      <trkpt lat="43.38096" lon="6.47068">
        <ele>84.73</ele>
        <time>2026-03-20T12:09:02Z</time>
      </trkpt>
      <trkpt lat="43.381" lon="6.47068">
        <ele>84.73</ele>
        <time>2026-03-20T12:09:08Z</time>
      </trkpt>
      <trkpt lat="43.38109" lon="6.4707">
        <ele>84.73</ele>
        <time>2026-03-20T12:09:22Z</time>
      </trkpt>
      <trkpt lat="43.38117" lon="6.47071">
        <ele>84.25</ele>
        <time>2026-03-20T12:09:35Z</time>
      </trkpt>
      <trkpt lat="43.38124" lon="6.47074">
        <ele>82.81</ele>
        <time>2026-03-20T12:09:50Z</time>
      </trkpt>
      <trkpt lat="43.38128" lon="6.47075">
        <ele>82.81</ele>
        <time>2026-03-20T12:10:02Z</time>
      </trkpt>
      <trkpt lat="43.38136" lon="6.47077">
        <ele>82.33</ele>
        <time>2026-03-20T12:10:13Z</time>
      </trkpt>
      <trkpt lat="43.38147" lon="6.47071">
        <ele>82.33</ele>
        <time>2026-03-20T12:10:28Z</time>
      </trkpt>
      <trkpt lat="43.38157" lon="6.47063">
        <ele>81.85</ele>
        <time>2026-03-20T12:10:42Z</time>
      </trkpt>
      <trkpt lat="43.38162" lon="6.47056">
        <ele>81.85</ele>
        <time>2026-03-20T12:10:54Z</time>
      </trkpt>
      <trkpt lat="43.38162" lon="6.47048">
        <ele>82.33</ele>
        <time>2026-03-20T12:11:11Z</time>
      </trkpt>
      <trkpt lat="43.38168" lon="6.47041">
        <ele>82.33</ele>
        <time>2026-03-20T12:11:24Z</time>
      </trkpt>
      <trkpt lat="43.38172" lon="6.47036">
        <ele>81.85</ele>
        <time>2026-03-20T12:11:35Z</time>
      </trkpt>
      <trkpt lat="43.38177" lon="6.47035">
        <ele>81.85</ele>
        <time>2026-03-20T12:11:46Z</time>
      </trkpt>
      <trkpt lat="43.38181" lon="6.47031">
        <ele>82.81</ele>
        <time>2026-03-20T12:11:57Z</time>
      </trkpt>
      <trkpt lat="43.38188" lon="6.47029">
        <ele>81.85</ele>
        <time>2026-03-20T12:12:11Z</time>
      </trkpt>
      <trkpt lat="43.38192" lon="6.4703">
        <ele>81.37</ele>
        <time>2026-03-20T12:12:23Z</time>
      </trkpt>
      <trkpt lat="43.38199" lon="6.47032">
        <ele>81.37</ele>
        <time>2026-03-20T12:12:36Z</time>
      </trkpt>
      <trkpt lat="43.38205" lon="6.47035">
        <ele>81.85</ele>
        <time>2026-03-20T12:12:46Z</time>
      </trkpt>
      <trkpt lat="43.38212" lon="6.47035">
        <ele>81.85</ele>
        <time>2026-03-20T12:12:58Z</time>
      </trkpt>
      <trkpt lat="43.38218" lon="6.47039">
        <ele>82.81</ele>
        <time>2026-03-20T12:13:14Z</time>
      </trkpt>
      <trkpt lat="43.3822" lon="6.47046">
        <ele>83.29</ele>
        <time>2026-03-20T12:13:24Z</time>
      </trkpt>
      <trkpt lat="43.38225" lon="6.47052">
        <ele>83.77</ele>
        <time>2026-03-20T12:13:34Z</time>
      </trkpt>
      <trkpt lat="43.38231" lon="6.47059">
        <ele>84.25</ele>
        <time>2026-03-20T12:13:45Z</time>
      </trkpt>
      <trkpt lat="43.38239" lon="6.47061">
        <ele>84.25</ele>
        <time>2026-03-20T12:13:56Z</time>
      </trkpt>
      <trkpt lat="43.38246" lon="6.47059">
        <ele>83.77</ele>
        <time>2026-03-20T12:14:09Z</time>
      </trkpt>
      <trkpt lat="43.38251" lon="6.47054">
        <ele>84.25</ele>
        <time>2026-03-20T12:14:19Z</time>
      </trkpt>
      <trkpt lat="43.38256" lon="6.47045">
        <ele>83.29</ele>
        <time>2026-03-20T12:14:31Z</time>
      </trkpt>
      <trkpt lat="43.38263" lon="6.47039">
        <ele>82.81</ele>
        <time>2026-03-20T12:14:41Z</time>
      </trkpt>
      <trkpt lat="43.38269" lon="6.47035">
        <ele>83.29</ele>
        <time>2026-03-20T12:14:55Z</time>
      </trkpt>
      <trkpt lat="43.38274" lon="6.47033">
        <ele>83.29</ele>
        <time>2026-03-20T12:15:14Z</time>
      </trkpt>
      <trkpt lat="43.3828" lon="6.4703">
        <ele>83.77</ele>
        <time>2026-03-20T12:15:26Z</time>
      </trkpt>
      <trkpt lat="43.38285" lon="6.47028">
        <ele>84.73</ele>
        <time>2026-03-20T12:15:34Z</time>
      </trkpt>
      <trkpt lat="43.3829" lon="6.47024">
        <ele>84.73</ele>
        <time>2026-03-20T12:15:43Z</time>
      </trkpt>
      <trkpt lat="43.38299" lon="6.47021">
        <ele>86.18</ele>
        <time>2026-03-20T12:15:54Z</time>
      </trkpt>
      <trkpt lat="43.38304" lon="6.4702">
        <ele>86.18</ele>
        <time>2026-03-20T12:16:01Z</time>
      </trkpt>
      <trkpt lat="43.38307" lon="6.47018">
        <ele>86.66</ele>
        <time>2026-03-20T12:16:04Z</time>
      </trkpt>
      <trkpt lat="43.38317" lon="6.47016">
        <ele>86.66</ele>
        <time>2026-03-20T12:16:17Z</time>
      </trkpt>
      <trkpt lat="43.38323" lon="6.47012">
        <ele>86.66</ele>
        <time>2026-03-20T12:16:26Z</time>
      </trkpt>
      <trkpt lat="43.38335" lon="6.47006">
        <ele>86.18</ele>
        <time>2026-03-20T12:16:41Z</time>
      </trkpt>
      <trkpt lat="43.38344" lon="6.46999">
        <ele>86.66</ele>
        <time>2026-03-20T12:16:56Z</time>
      </trkpt>
      <trkpt lat="43.38353" lon="6.46992">
        <ele>86.18</ele>
        <time>2026-03-20T12:17:08Z</time>
      </trkpt>
      <trkpt lat="43.38361" lon="6.46984">
        <ele>86.66</ele>
        <time>2026-03-20T12:17:20Z</time>
      </trkpt>
      <trkpt lat="43.38368" lon="6.46974">
        <ele>86.66</ele>
        <time>2026-03-20T12:17:33Z</time>
      </trkpt>
      <trkpt lat="43.38376" lon="6.46964">
        <ele>85.69</ele>
        <time>2026-03-20T12:17:45Z</time>
      </trkpt>
      <trkpt lat="43.38387" lon="6.46959">
        <ele>85.21</ele>
        <time>2026-03-20T12:18:01Z</time>
      </trkpt>
      <trkpt lat="43.38396" lon="6.46957">
        <ele>86.66</ele>
        <time>2026-03-20T12:18:13Z</time>
      </trkpt>
      <trkpt lat="43.38405" lon="6.46954">
        <ele>87.14</ele>
        <time>2026-03-20T12:18:26Z</time>
      </trkpt>
      <trkpt lat="43.38416" lon="6.46952">
        <ele>86.66</ele>
        <time>2026-03-20T12:18:39Z</time>
      </trkpt>
      <trkpt lat="43.38423" lon="6.46946">
        <ele>86.66</ele>
        <time>2026-03-20T12:18:50Z</time>
      </trkpt>
      <trkpt lat="43.38433" lon="6.46938">
        <ele>87.14</ele>
        <time>2026-03-20T12:19:04Z</time>
      </trkpt>
      <trkpt lat="43.38434" lon="6.46938">
        <ele>87.14</ele>
        <time>2026-03-20T12:19:06Z</time>
      </trkpt>
      <trkpt lat="43.38442" lon="6.4694">
        <ele>84.25</ele>
        <time>2026-03-20T12:19:20Z</time>
      </trkpt>
      <trkpt lat="43.38453" lon="6.46939">
        <ele>83.77</ele>
        <time>2026-03-20T12:19:34Z</time>
      </trkpt>
      <trkpt lat="43.38461" lon="6.46938">
        <ele>83.77</ele>
        <time>2026-03-20T12:19:46Z</time>
      </trkpt>
      <trkpt lat="43.38469" lon="6.46932">
        <ele>84.73</ele>
        <time>2026-03-20T12:20:01Z</time>
      </trkpt>
      <trkpt lat="43.38478" lon="6.46928">
        <ele>84.25</ele>
        <time>2026-03-20T12:20:13Z</time>
      </trkpt>
      <trkpt lat="43.38483" lon="6.46927">
        <ele>83.77</ele>
        <time>2026-03-20T12:20:18Z</time>
      </trkpt>
      <trkpt lat="43.38489" lon="6.46923">
        <ele>82.33</ele>
        <time>2026-03-20T12:20:28Z</time>
      </trkpt>
      <trkpt lat="43.38498" lon="6.46921">
        <ele>80.89</ele>
        <time>2026-03-20T12:20:39Z</time>
      </trkpt>
      <trkpt lat="43.38507" lon="6.46916">
        <ele>78.97</ele>
        <time>2026-03-20T12:20:50Z</time>
      </trkpt>
      <trkpt lat="43.38515" lon="6.46912">
        <ele>78</ele>
        <time>2026-03-20T12:21:02Z</time>
      </trkpt>
      <trkpt lat="43.38523" lon="6.46908">
        <ele>78.48</ele>
        <time>2026-03-20T12:21:16Z</time>
      </trkpt>
      <trkpt lat="43.3853" lon="6.46905">
        <ele>78.48</ele>
        <time>2026-03-20T12:21:25Z</time>
      </trkpt>
      <trkpt lat="43.38538" lon="6.46901">
        <ele>78</ele>
        <time>2026-03-20T12:21:35Z</time>
      </trkpt>
      <trkpt lat="43.38547" lon="6.46895">
        <ele>78.48</ele>
        <time>2026-03-20T12:21:48Z</time>
      </trkpt>
      <trkpt lat="43.38553" lon="6.46888">
        <ele>77.52</ele>
        <time>2026-03-20T12:21:59Z</time>
      </trkpt>
      <trkpt lat="43.38559" lon="6.46882">
        <ele>76.56</ele>
        <time>2026-03-20T12:22:10Z</time>
      </trkpt>
      <trkpt lat="43.38563" lon="6.46877">
        <ele>75.6</ele>
        <time>2026-03-20T12:22:24Z</time>
      </trkpt>
      <trkpt lat="43.38569" lon="6.4687">
        <ele>73.68</ele>
        <time>2026-03-20T12:22:36Z</time>
      </trkpt>
      <trkpt lat="43.38578" lon="6.46864">
        <ele>74.64</ele>
        <time>2026-03-20T12:22:48Z</time>
      </trkpt>
      <trkpt lat="43.38587" lon="6.46862">
        <ele>76.56</ele>
        <time>2026-03-20T12:23:01Z</time>
      </trkpt>
      <trkpt lat="43.38591" lon="6.4686">
        <ele>79.93</ele>
        <time>2026-03-20T12:23:24Z</time>
      </trkpt>
      <trkpt lat="43.38595" lon="6.46856">
        <ele>79.45</ele>
        <time>2026-03-20T12:23:36Z</time>
      </trkpt>
      <trkpt lat="43.38603" lon="6.46856">
        <ele>79.45</ele>
        <time>2026-03-20T12:23:49Z</time>
      </trkpt>
      <trkpt lat="43.3861" lon="6.4686">
        <ele>78</ele>
        <time>2026-03-20T12:23:59Z</time>
      </trkpt>
      <trkpt lat="43.38613" lon="6.46859">
        <ele>77.52</ele>
        <time>2026-03-20T12:24:03Z</time>
      </trkpt>
      <trkpt lat="43.38615" lon="6.46859">
        <ele>77.04</ele>
        <time>2026-03-20T12:24:06Z</time>
      </trkpt>
      <trkpt lat="43.38627" lon="6.46857">
        <ele>77.04</ele>
        <time>2026-03-20T12:24:19Z</time>
      </trkpt>
      <trkpt lat="43.38638" lon="6.46849">
        <ele>76.56</ele>
        <time>2026-03-20T12:24:33Z</time>
      </trkpt>
      <trkpt lat="43.38646" lon="6.46845">
        <ele>75.6</ele>
        <time>2026-03-20T12:24:45Z</time>
      </trkpt>
      <trkpt lat="43.38656" lon="6.4684">
        <ele>75.12</ele>
        <time>2026-03-20T12:24:59Z</time>
      </trkpt>
      <trkpt lat="43.38663" lon="6.46837">
        <ele>72.72</ele>
        <time>2026-03-20T12:25:11Z</time>
      </trkpt>
      <trkpt lat="43.38668" lon="6.46839">
        <ele>73.2</ele>
        <time>2026-03-20T12:25:17Z</time>
      </trkpt>
      <trkpt lat="43.38676" lon="6.46838">
        <ele>72.72</ele>
        <time>2026-03-20T12:25:27Z</time>
      </trkpt>
      <trkpt lat="43.38679" lon="6.46832">
        <ele>72.72</ele>
        <time>2026-03-20T12:25:44Z</time>
      </trkpt>
      <trkpt lat="43.3868" lon="6.46829">
        <ele>73.2</ele>
        <time>2026-03-20T12:26:01Z</time>
      </trkpt>
      <trkpt lat="43.38681" lon="6.46826">
        <ele>73.2</ele>
        <time>2026-03-20T12:26:13Z</time>
      </trkpt>
      <trkpt lat="43.3868" lon="6.46819">
        <ele>72.72</ele>
        <time>2026-03-20T12:26:18Z</time>
      </trkpt>
      <trkpt lat="43.38679" lon="6.46805">
        <ele>72.24</ele>
        <time>2026-03-20T12:26:30Z</time>
      </trkpt>
      <trkpt lat="43.38678" lon="6.46792">
        <ele>72.24</ele>
        <time>2026-03-20T12:26:42Z</time>
      </trkpt>
      <trkpt lat="43.38678" lon="6.46791">
        <ele>72.24</ele>
        <time>2026-03-20T12:26:43Z</time>
      </trkpt>
      <trkpt lat="43.38675" lon="6.46785">
        <ele>70.31</ele>
        <time>2026-03-20T12:27:00Z</time>
      </trkpt>
      <trkpt lat="43.38671" lon="6.46773">
        <ele>70.79</ele>
        <time>2026-03-20T12:27:12Z</time>
      </trkpt>
      <trkpt lat="43.38664" lon="6.46759">
        <ele>70.79</ele>
        <time>2026-03-20T12:27:25Z</time>
      </trkpt>
      <trkpt lat="43.38657" lon="6.46744">
        <ele>70.31</ele>
        <time>2026-03-20T12:27:38Z</time>
      </trkpt>
      <trkpt lat="43.38651" lon="6.46728">
        <ele>68.39</ele>
        <time>2026-03-20T12:27:51Z</time>
      </trkpt>
      <trkpt lat="43.38647" lon="6.46716">
        <ele>67.91</ele>
        <time>2026-03-20T12:28:02Z</time>
      </trkpt>
      <trkpt lat="43.3864" lon="6.467">
        <ele>68.39</ele>
        <time>2026-03-20T12:28:15Z</time>
      </trkpt>
      <trkpt lat="43.38633" lon="6.46684">
        <ele>69.83</ele>
        <time>2026-03-20T12:28:28Z</time>
      </trkpt>
      <trkpt lat="43.3863" lon="6.46671">
        <ele>69.35</ele>
        <time>2026-03-20T12:28:40Z</time>
      </trkpt>
      <trkpt lat="43.3863" lon="6.46658">
        <ele>67.91</ele>
        <time>2026-03-20T12:28:52Z</time>
      </trkpt>
      <trkpt lat="43.3863" lon="6.46655">
        <ele>66.47</ele>
        <time>2026-03-20T12:29:04Z</time>
      </trkpt>
      <trkpt lat="43.38629" lon="6.46647">
        <ele>65.99</ele>
        <time>2026-03-20T12:29:21Z</time>
      </trkpt>
      <trkpt lat="43.38624" lon="6.46637">
        <ele>65.03</ele>
        <time>2026-03-20T12:29:32Z</time>
      </trkpt>
      <trkpt lat="43.38619" lon="6.46626">
        <ele>64.55</ele>
        <time>2026-03-20T12:29:44Z</time>
      </trkpt>
      <trkpt lat="43.38616" lon="6.46614">
        <ele>65.99</ele>
        <time>2026-03-20T12:29:55Z</time>
      </trkpt>
      <trkpt lat="43.38605" lon="6.46598">
        <ele>67.43</ele>
        <time>2026-03-20T12:30:08Z</time>
      </trkpt>
      <trkpt lat="43.38592" lon="6.46591">
        <ele>68.39</ele>
        <time>2026-03-20T12:30:18Z</time>
      </trkpt>
      <trkpt lat="43.38583" lon="6.46582">
        <ele>68.39</ele>
        <time>2026-03-20T12:30:28Z</time>
      </trkpt>
      <trkpt lat="43.38576" lon="6.46573">
        <ele>68.39</ele>
        <time>2026-03-20T12:30:40Z</time>
      </trkpt>
      <trkpt lat="43.38573" lon="6.46561">
        <ele>67.43</ele>
        <time>2026-03-20T12:30:54Z</time>
      </trkpt>
      <trkpt lat="43.38574" lon="6.46553">
        <ele>67.43</ele>
        <time>2026-03-20T12:31:02Z</time>
      </trkpt>
      <trkpt lat="43.38575" lon="6.4654">
        <ele>67.91</ele>
        <time>2026-03-20T12:31:15Z</time>
      </trkpt>
      <trkpt lat="43.3858" lon="6.46529">
        <ele>68.87</ele>
        <time>2026-03-20T12:31:27Z</time>
      </trkpt>
      <trkpt lat="43.38588" lon="6.46516">
        <ele>66.47</ele>
        <time>2026-03-20T12:31:39Z</time>
      </trkpt>
      <trkpt lat="43.38592" lon="6.46501">
        <ele>65.03</ele>
        <time>2026-03-20T12:31:51Z</time>
      </trkpt>
      <trkpt lat="43.38594" lon="6.4649">
        <ele>65.51</ele>
        <time>2026-03-20T12:32:01Z</time>
      </trkpt>
      <trkpt lat="43.38593" lon="6.46483">
        <ele>65.03</ele>
        <time>2026-03-20T12:32:15Z</time>
      </trkpt>
      <trkpt lat="43.3859" lon="6.46471">
        <ele>65.03</ele>
        <time>2026-03-20T12:32:25Z</time>
      </trkpt>
      <trkpt lat="43.38586" lon="6.46458">
        <ele>61.66</ele>
        <time>2026-03-20T12:32:39Z</time>
      </trkpt>
      <trkpt lat="43.38588" lon="6.46448">
        <ele>60.22</ele>
        <time>2026-03-20T12:32:48Z</time>
      </trkpt>
      <trkpt lat="43.38589" lon="6.46432">
        <ele>60.7</ele>
        <time>2026-03-20T12:33:00Z</time>
      </trkpt>
      <trkpt lat="43.3859" lon="6.46419">
        <ele>61.18</ele>
        <time>2026-03-20T12:33:11Z</time>
      </trkpt>
      <trkpt lat="43.38595" lon="6.46416">
        <ele>59.74</ele>
        <time>2026-03-20T12:33:22Z</time>
      </trkpt>
      <trkpt lat="43.38599" lon="6.46413">
        <ele>58.78</ele>
        <time>2026-03-20T12:33:37Z</time>
      </trkpt>
      <trkpt lat="43.38602" lon="6.4641">
        <ele>58.78</ele>
        <time>2026-03-20T12:33:42Z</time>
      </trkpt>
      <trkpt lat="43.38604" lon="6.46395">
        <ele>60.7</ele>
        <time>2026-03-20T12:33:54Z</time>
      </trkpt>
      <trkpt lat="43.38605" lon="6.46385">
        <ele>62.14</ele>
        <time>2026-03-20T12:34:05Z</time>
      </trkpt>
      <trkpt lat="43.38606" lon="6.46371">
        <ele>61.18</ele>
        <time>2026-03-20T12:34:17Z</time>
      </trkpt>
      <trkpt lat="43.38607" lon="6.46368">
        <ele>60.22</ele>
        <time>2026-03-20T12:34:21Z</time>
      </trkpt>
      <trkpt lat="43.38607" lon="6.46358">
        <ele>58.3</ele>
        <time>2026-03-20T12:34:30Z</time>
      </trkpt>
      <trkpt lat="43.38608" lon="6.46345">
        <ele>56.37</ele>
        <time>2026-03-20T12:34:42Z</time>
      </trkpt>
      <trkpt lat="43.38609" lon="6.46337">
        <ele>59.74</ele>
        <time>2026-03-20T12:34:55Z</time>
      </trkpt>
      <trkpt lat="43.38614" lon="6.46338">
        <ele>61.18</ele>
        <time>2026-03-20T12:35:07Z</time>
      </trkpt>
      <trkpt lat="43.38617" lon="6.46335">
        <ele>59.26</ele>
        <time>2026-03-20T12:35:35Z</time>
      </trkpt>
      <trkpt lat="43.3862" lon="6.46329">
        <ele>58.3</ele>
        <time>2026-03-20T12:35:51Z</time>
      </trkpt>
      <trkpt lat="43.3862" lon="6.46316">
        <ele>60.22</ele>
        <time>2026-03-20T12:36:02Z</time>
      </trkpt>
      <trkpt lat="43.3862" lon="6.46313">
        <ele>60.22</ele>
        <time>2026-03-20T12:36:05Z</time>
      </trkpt>
      <trkpt lat="43.38619" lon="6.46299">
        <ele>60.7</ele>
        <time>2026-03-20T12:36:16Z</time>
      </trkpt>
      <trkpt lat="43.38622" lon="6.46285">
        <ele>62.14</ele>
        <time>2026-03-20T12:36:28Z</time>
      </trkpt>
      <trkpt lat="43.38621" lon="6.46269">
        <ele>58.78</ele>
        <time>2026-03-20T12:36:40Z</time>
      </trkpt>
      <trkpt lat="43.38622" lon="6.46254">
        <ele>58.3</ele>
        <time>2026-03-20T12:36:53Z</time>
      </trkpt>
      <trkpt lat="43.38628" lon="6.46237">
        <ele>58.3</ele>
        <time>2026-03-20T12:37:07Z</time>
      </trkpt>
      <trkpt lat="43.3863" lon="6.46221">
        <ele>57.82</ele>
        <time>2026-03-20T12:37:19Z</time>
      </trkpt>
      <trkpt lat="43.38633" lon="6.46204">
        <ele>56.86</ele>
        <time>2026-03-20T12:37:32Z</time>
      </trkpt>
      <trkpt lat="43.38633" lon="6.46195">
        <ele>56.37</ele>
        <time>2026-03-20T12:37:39Z</time>
      </trkpt>
      <trkpt lat="43.38633" lon="6.46187">
        <ele>56.86</ele>
        <time>2026-03-20T12:37:46Z</time>
      </trkpt>
      <trkpt lat="43.38637" lon="6.46173">
        <ele>56.86</ele>
        <time>2026-03-20T12:38:01Z</time>
      </trkpt>
      <trkpt lat="43.38641" lon="6.46165">
        <ele>56.86</ele>
        <time>2026-03-20T12:38:13Z</time>
      </trkpt>
      <trkpt lat="43.38645" lon="6.46154">
        <ele>56.37</ele>
        <time>2026-03-20T12:38:28Z</time>
      </trkpt>
      <trkpt lat="43.38646" lon="6.46146">
        <ele>55.41</ele>
        <time>2026-03-20T12:38:41Z</time>
      </trkpt>
      <trkpt lat="43.38651" lon="6.46137">
        <ele>56.37</ele>
        <time>2026-03-20T12:38:53Z</time>
      </trkpt>
      <trkpt lat="43.38657" lon="6.46136">
        <ele>54.45</ele>
        <time>2026-03-20T12:39:08Z</time>
      </trkpt>
      <trkpt lat="43.38657" lon="6.46137">
        <ele>55.41</ele>
        <time>2026-03-20T12:39:24Z</time>
      </trkpt>
      <trkpt lat="43.38659" lon="6.46129">
        <ele>54.45</ele>
        <time>2026-03-20T12:39:31Z</time>
      </trkpt>
      <trkpt lat="43.38663" lon="6.46119">
        <ele>53.97</ele>
        <time>2026-03-20T12:39:43Z</time>
      </trkpt>
      <trkpt lat="43.38667" lon="6.46111">
        <ele>53.01</ele>
        <time>2026-03-20T12:39:55Z</time>
      </trkpt>
      <trkpt lat="43.38668" lon="6.4611">
        <ele>53.01</ele>
        <time>2026-03-20T12:39:56Z</time>
      </trkpt>
      <trkpt lat="43.38673" lon="6.46097">
        <ele>53.01</ele>
        <time>2026-03-20T12:40:08Z</time>
      </trkpt>
      <trkpt lat="43.38675" lon="6.46089">
        <ele>53.97</ele>
        <time>2026-03-20T12:40:21Z</time>
      </trkpt>
      <trkpt lat="43.38675" lon="6.46088">
        <ele>53.97</ele>
        <time>2026-03-20T12:40:34Z</time>
      </trkpt>
      <trkpt lat="43.38676" lon="6.46078">
        <ele>53.01</ele>
        <time>2026-03-20T12:40:45Z</time>
      </trkpt>
      <trkpt lat="43.38677" lon="6.46076">
        <ele>53.01</ele>
        <time>2026-03-20T12:40:47Z</time>
      </trkpt>
      <trkpt lat="43.38678" lon="6.46072">
        <ele>52.53</ele>
        <time>2026-03-20T12:40:51Z</time>
      </trkpt>
      <trkpt lat="43.38679" lon="6.46058">
        <ele>51.57</ele>
        <time>2026-03-20T12:41:03Z</time>
      </trkpt>
      <trkpt lat="43.38678" lon="6.46056">
        <ele>51.57</ele>
        <time>2026-03-20T12:41:05Z</time>
      </trkpt>
      <trkpt lat="43.38672" lon="6.46043">
        <ele>50.61</ele>
        <time>2026-03-20T12:41:17Z</time>
      </trkpt>
      <trkpt lat="43.38664" lon="6.46044">
        <ele>51.09</ele>
        <time>2026-03-20T12:41:29Z</time>
      </trkpt>
      <trkpt lat="43.38664" lon="6.46038">
        <ele>53.97</ele>
        <time>2026-03-20T12:41:57Z</time>
      </trkpt>
      <trkpt lat="43.3866" lon="6.4604">
        <ele>53.01</ele>
        <time>2026-03-20T12:42:12Z</time>
      </trkpt>
      <trkpt lat="43.38655" lon="6.46037">
        <ele>53.49</ele>
        <time>2026-03-20T12:42:22Z</time>
      </trkpt>
      <trkpt lat="43.38655" lon="6.4604">
        <ele>53.97</ele>
        <time>2026-03-20T12:42:34Z</time>
      </trkpt>
      <trkpt lat="43.38659" lon="6.46031">
        <ele>53.97</ele>
        <time>2026-03-20T12:42:46Z</time>
      </trkpt>
      <trkpt lat="43.38659" lon="6.46023">
        <ele>53.97</ele>
        <time>2026-03-20T12:42:58Z</time>
      </trkpt>
      <trkpt lat="43.38659" lon="6.46018">
        <ele>53.49</ele>
        <time>2026-03-20T12:43:11Z</time>
      </trkpt>
      <trkpt lat="43.38657" lon="6.46016">
        <ele>53.01</ele>
        <time>2026-03-20T12:43:29Z</time>
      </trkpt>
      <trkpt lat="43.38658" lon="6.46006">
        <ele>53.49</ele>
        <time>2026-03-20T12:43:40Z</time>
      </trkpt>
      <trkpt lat="43.38658" lon="6.45999">
        <ele>53.01</ele>
        <time>2026-03-20T12:44:00Z</time>
      </trkpt>
      <trkpt lat="43.38659" lon="6.45984">
        <ele>54.93</ele>
        <time>2026-03-20T12:44:12Z</time>
      </trkpt>
      <trkpt lat="43.38659" lon="6.45972">
        <ele>54.93</ele>
        <time>2026-03-20T12:44:23Z</time>
      </trkpt>
      <trkpt lat="43.38659" lon="6.45967">
        <ele>54.93</ele>
        <time>2026-03-20T12:44:27Z</time>
      </trkpt>
      <trkpt lat="43.38662" lon="6.45956">
        <ele>54.93</ele>
        <time>2026-03-20T12:44:40Z</time>
      </trkpt>
      <trkpt lat="43.38657" lon="6.45952">
        <ele>55.41</ele>
        <time>2026-03-20T12:44:51Z</time>
      </trkpt>
      <trkpt lat="43.38657" lon="6.45949">
        <ele>55.89</ele>
        <time>2026-03-20T12:44:59Z</time>
      </trkpt>
      <trkpt lat="43.38663" lon="6.45946">
        <ele>54.45</ele>
        <time>2026-03-20T12:45:10Z</time>
      </trkpt>
      <trkpt lat="43.38667" lon="6.45938">
        <ele>52.05</ele>
        <time>2026-03-20T12:45:23Z</time>
      </trkpt>
      <trkpt lat="43.38668" lon="6.45936">
        <ele>51.57</ele>
        <time>2026-03-20T12:45:27Z</time>
      </trkpt>
      <trkpt lat="43.38671" lon="6.45926">
        <ele>51.09</ele>
        <time>2026-03-20T12:45:38Z</time>
      </trkpt>
      <trkpt lat="43.38673" lon="6.45916">
        <ele>51.09</ele>
        <time>2026-03-20T12:45:51Z</time>
      </trkpt>
      <trkpt lat="43.38674" lon="6.45906">
        <ele>51.57</ele>
        <time>2026-03-20T12:46:05Z</time>
      </trkpt>
      <trkpt lat="43.38675" lon="6.45902">
        <ele>52.53</ele>
        <time>2026-03-20T12:46:19Z</time>
      </trkpt>
      <trkpt lat="43.38677" lon="6.4589">
        <ele>51.57</ele>
        <time>2026-03-20T12:46:30Z</time>
      </trkpt>
      <trkpt lat="43.3868" lon="6.45887">
        <ele>51.09</ele>
        <time>2026-03-20T12:46:34Z</time>
      </trkpt>
      <trkpt lat="43.38684" lon="6.45886">
        <ele>49.65</ele>
        <time>2026-03-20T12:46:39Z</time>
      </trkpt>
      <trkpt lat="43.38693" lon="6.45879">
        <ele>47.72</ele>
        <time>2026-03-20T12:46:51Z</time>
      </trkpt>
      <trkpt lat="43.38701" lon="6.45869">
        <ele>47.24</ele>
        <time>2026-03-20T12:47:03Z</time>
      </trkpt>
      <trkpt lat="43.38709" lon="6.45863">
        <ele>46.76</ele>
        <time>2026-03-20T12:47:14Z</time>
      </trkpt>
      <trkpt lat="43.38721" lon="6.45857">
        <ele>47.72</ele>
        <time>2026-03-20T12:47:27Z</time>
      </trkpt>
      <trkpt lat="43.38731" lon="6.45844">
        <ele>48.2</ele>
        <time>2026-03-20T12:47:40Z</time>
      </trkpt>
      <trkpt lat="43.38739" lon="6.45836">
        <ele>49.16</ele>
        <time>2026-03-20T12:47:52Z</time>
      </trkpt>
      <trkpt lat="43.38744" lon="6.45838">
        <ele>50.13</ele>
        <time>2026-03-20T12:48:07Z</time>
      </trkpt>
      <trkpt lat="43.38746" lon="6.45841">
        <ele>48.68</ele>
        <time>2026-03-20T12:48:28Z</time>
      </trkpt>
      <trkpt lat="43.38748" lon="6.45839">
        <ele>49.65</ele>
        <time>2026-03-20T12:48:45Z</time>
      </trkpt>
      <trkpt lat="43.38752" lon="6.45832">
        <ele>49.16</ele>
        <time>2026-03-20T12:49:02Z</time>
      </trkpt>
      <trkpt lat="43.38757" lon="6.45829">
        <ele>51.09</ele>
        <time>2026-03-20T12:49:39Z</time>
      </trkpt>
      <trkpt lat="43.38754" lon="6.45827">
        <ele>51.57</ele>
        <time>2026-03-20T12:50:21Z</time>
      </trkpt>
      <trkpt lat="43.38751" lon="6.45827">
        <ele>51.09</ele>
        <time>2026-03-20T12:50:48Z</time>
      </trkpt>
      <trkpt lat="43.38755" lon="6.45828">
        <ele>54.45</ele>
        <time>2026-03-20T12:51:10Z</time>
      </trkpt>
      <trkpt lat="43.3875" lon="6.45823">
        <ele>53.01</ele>
        <time>2026-03-20T12:51:36Z</time>
      </trkpt>
      <trkpt lat="43.38746" lon="6.45823">
        <ele>53.97</ele>
        <time>2026-03-20T12:52:11Z</time>
      </trkpt>
      <trkpt lat="43.38749" lon="6.45824">
        <ele>53.01</ele>
        <time>2026-03-20T12:52:50Z</time>
      </trkpt>
      <trkpt lat="43.38752" lon="6.45821">
        <ele>53.49</ele>
        <time>2026-03-20T12:53:10Z</time>
      </trkpt>
      <trkpt lat="43.38758" lon="6.4582">
        <ele>51.57</ele>
        <time>2026-03-20T12:53:30Z</time>
      </trkpt>
      <trkpt lat="43.38764" lon="6.45828">
        <ele>49.65</ele>
        <time>2026-03-20T12:53:45Z</time>
      </trkpt>
      <trkpt lat="43.38766" lon="6.45832">
        <ele>48.2</ele>
        <time>2026-03-20T12:53:51Z</time>
      </trkpt>
      <trkpt lat="43.38772" lon="6.45842">
        <ele>46.28</ele>
        <time>2026-03-20T12:54:02Z</time>
      </trkpt>
      <trkpt lat="43.38774" lon="6.45843">
        <ele>46.76</ele>
        <time>2026-03-20T12:54:05Z</time>
      </trkpt>
      <trkpt lat="43.38778" lon="6.45844">
        <ele>46.28</ele>
        <time>2026-03-20T12:54:09Z</time>
      </trkpt>
      <trkpt lat="43.3878" lon="6.45845">
        <ele>45.8</ele>
        <time>2026-03-20T12:54:11Z</time>
      </trkpt>
      <trkpt lat="43.38789" lon="6.4585">
        <ele>47.72</ele>
        <time>2026-03-20T12:54:23Z</time>
      </trkpt>
      <trkpt lat="43.38793" lon="6.45852">
        <ele>47.24</ele>
        <time>2026-03-20T12:54:27Z</time>
      </trkpt>
      <trkpt lat="43.38795" lon="6.45854">
        <ele>47.72</ele>
        <time>2026-03-20T12:54:30Z</time>
      </trkpt>
      <trkpt lat="43.38806" lon="6.45856">
        <ele>48.2</ele>
        <time>2026-03-20T12:54:41Z</time>
      </trkpt>
      <trkpt lat="43.38813" lon="6.45854">
        <ele>47.24</ele>
        <time>2026-03-20T12:54:48Z</time>
      </trkpt>
      <trkpt lat="43.38816" lon="6.4585">
        <ele>48.2</ele>
        <time>2026-03-20T12:54:52Z</time>
      </trkpt>
      <trkpt lat="43.3882" lon="6.4585">
        <ele>47.24</ele>
        <time>2026-03-20T12:54:57Z</time>
      </trkpt>
      <trkpt lat="43.38825" lon="6.45857">
        <ele>48.68</ele>
        <time>2026-03-20T12:55:07Z</time>
      </trkpt>
      <trkpt lat="43.38827" lon="6.4586">
        <ele>49.16</ele>
        <time>2026-03-20T12:55:11Z</time>
      </trkpt>
      <trkpt lat="43.38832" lon="6.4586">
        <ele>49.16</ele>
        <time>2026-03-20T12:55:18Z</time>
      </trkpt>
      <trkpt lat="43.38835" lon="6.4586">
        <ele>48.68</ele>
        <time>2026-03-20T12:55:21Z</time>
      </trkpt>
      <trkpt lat="43.38847" lon="6.45858">
        <ele>48.68</ele>
        <time>2026-03-20T12:55:34Z</time>
      </trkpt>
      <trkpt lat="43.38856" lon="6.45858">
        <ele>47.72</ele>
        <time>2026-03-20T12:55:45Z</time>
      </trkpt>
      <trkpt lat="43.38864" lon="6.45862">
        <ele>47.72</ele>
        <time>2026-03-20T12:55:56Z</time>
      </trkpt>
      <trkpt lat="43.3887" lon="6.45859">
        <ele>48.2</ele>
        <time>2026-03-20T12:56:06Z</time>
      </trkpt>
      <trkpt lat="43.38878" lon="6.45858">
        <ele>48.2</ele>
        <time>2026-03-20T12:56:18Z</time>
      </trkpt>
      <trkpt lat="43.38886" lon="6.45856">
        <ele>43.88</ele>
        <time>2026-03-20T12:56:29Z</time>
      </trkpt>
      <trkpt lat="43.38893" lon="6.4585">
        <ele>42.44</ele>
        <time>2026-03-20T12:56:42Z</time>
      </trkpt>
      <trkpt lat="43.389" lon="6.45839">
        <ele>44.84</ele>
        <time>2026-03-20T12:56:56Z</time>
      </trkpt>
      <trkpt lat="43.38904" lon="6.45831">
        <ele>44.84</ele>
        <time>2026-03-20T12:57:05Z</time>
      </trkpt>
      <trkpt lat="43.38913" lon="6.4582">
        <ele>44.84</ele>
        <time>2026-03-20T12:57:18Z</time>
      </trkpt>
      <trkpt lat="43.38924" lon="6.45817">
        <ele>44.36</ele>
        <time>2026-03-20T12:57:31Z</time>
      </trkpt>
      <trkpt lat="43.38931" lon="6.45815">
        <ele>45.32</ele>
        <time>2026-03-20T12:57:40Z</time>
      </trkpt>
      <trkpt lat="43.38942" lon="6.45811">
        <ele>45.32</ele>
        <time>2026-03-20T12:57:52Z</time>
      </trkpt>
      <trkpt lat="43.38951" lon="6.45815">
        <ele>44.84</ele>
        <time>2026-03-20T12:58:01Z</time>
      </trkpt>
      <trkpt lat="43.38963" lon="6.4582">
        <ele>44.36</ele>
        <time>2026-03-20T12:58:13Z</time>
      </trkpt>
      <trkpt lat="43.38973" lon="6.45816">
        <ele>43.4</ele>
        <time>2026-03-20T12:58:25Z</time>
      </trkpt>
      <trkpt lat="43.38983" lon="6.45816">
        <ele>42.44</ele>
        <time>2026-03-20T12:58:36Z</time>
      </trkpt>
      <trkpt lat="43.38994" lon="6.4581">
        <ele>39.55</ele>
        <time>2026-03-20T12:58:50Z</time>
      </trkpt>
      <trkpt lat="43.38995" lon="6.4581">
        <ele>39.55</ele>
        <time>2026-03-20T12:58:51Z</time>
      </trkpt>
      <trkpt lat="43.39004" lon="6.45804">
        <ele>37.15</ele>
        <time>2026-03-20T12:59:03Z</time>
      </trkpt>
      <trkpt lat="43.3901" lon="6.45795">
        <ele>40.99</ele>
        <time>2026-03-20T12:59:17Z</time>
      </trkpt>
      <trkpt lat="43.39013" lon="6.45791">
        <ele>43.4</ele>
        <time>2026-03-20T12:59:31Z</time>
      </trkpt>
      <trkpt lat="43.39014" lon="6.4579">
        <ele>48.2</ele>
        <time>2026-03-20T12:59:49Z</time>
      </trkpt>
      <trkpt lat="43.39015" lon="6.45789">
        <ele>49.65</ele>
        <time>2026-03-20T12:59:59Z</time>
      </trkpt>
      <trkpt lat="43.3902" lon="6.45787">
        <ele>48.68</ele>
        <time>2026-03-20T13:00:13Z</time>
      </trkpt>
      <trkpt lat="43.39023" lon="6.45776">
        <ele>47.24</ele>
        <time>2026-03-20T13:00:25Z</time>
      </trkpt>
      <trkpt lat="43.39022" lon="6.45774">
        <ele>46.76</ele>
        <time>2026-03-20T13:00:27Z</time>
      </trkpt>
      <trkpt lat="43.39024" lon="6.45769">
        <ele>46.28</ele>
        <time>2026-03-20T13:00:35Z</time>
      </trkpt>
      <trkpt lat="43.39028" lon="6.45759">
        <ele>46.76</ele>
        <time>2026-03-20T13:00:46Z</time>
      </trkpt>
      <trkpt lat="43.39025" lon="6.45753">
        <ele>47.72</ele>
        <time>2026-03-20T13:00:59Z</time>
      </trkpt>
      <trkpt lat="43.39018" lon="6.45755">
        <ele>49.65</ele>
        <time>2026-03-20T13:01:16Z</time>
      </trkpt>
      <trkpt lat="43.39015" lon="6.45756">
        <ele>50.61</ele>
        <time>2026-03-20T13:01:36Z</time>
      </trkpt>
      <trkpt lat="43.39019" lon="6.45759">
        <ele>48.68</ele>
        <time>2026-03-20T13:01:54Z</time>
      </trkpt>
      <trkpt lat="43.39023" lon="6.45763">
        <ele>46.28</ele>
        <time>2026-03-20T13:02:07Z</time>
      </trkpt>
      <trkpt lat="43.3902" lon="6.45764">
        <ele>46.76</ele>
        <time>2026-03-20T13:02:28Z</time>
      </trkpt>
      <trkpt lat="43.39019" lon="6.45768">
        <ele>45.32</ele>
        <time>2026-03-20T13:02:46Z</time>
      </trkpt>
      <trkpt lat="43.39023" lon="6.45766">
        <ele>45.8</ele>
        <time>2026-03-20T13:03:02Z</time>
      </trkpt>
      <trkpt lat="43.39024" lon="6.45762">
        <ele>45.8</ele>
        <time>2026-03-20T13:03:06Z</time>
      </trkpt>
      <trkpt lat="43.39029" lon="6.45749">
        <ele>47.24</ele>
        <time>2026-03-20T13:03:16Z</time>
      </trkpt>
      <trkpt lat="43.39035" lon="6.45737">
        <ele>47.24</ele>
        <time>2026-03-20T13:03:27Z</time>
      </trkpt>
      <trkpt lat="43.39041" lon="6.45726">
        <ele>44.36</ele>
        <time>2026-03-20T13:03:40Z</time>
      </trkpt>
      <trkpt lat="43.39046" lon="6.45712">
        <ele>43.4</ele>
        <time>2026-03-20T13:03:52Z</time>
      </trkpt>
      <trkpt lat="43.39053" lon="6.45698">
        <ele>43.4</ele>
        <time>2026-03-20T13:04:05Z</time>
      </trkpt>
      <trkpt lat="43.39056" lon="6.45697">
        <ele>44.84</ele>
        <time>2026-03-20T13:04:07Z</time>
      </trkpt>
      <trkpt lat="43.39061" lon="6.4569">
        <ele>47.24</ele>
        <time>2026-03-20T13:04:14Z</time>
      </trkpt>
      <trkpt lat="43.39073" lon="6.4568">
        <ele>49.16</ele>
        <time>2026-03-20T13:04:27Z</time>
      </trkpt>
      <trkpt lat="43.39073" lon="6.45663">
        <ele>49.65</ele>
        <time>2026-03-20T13:04:37Z</time>
      </trkpt>
      <trkpt lat="43.39073" lon="6.4566">
        <ele>49.65</ele>
        <time>2026-03-20T13:04:39Z</time>
      </trkpt>
      <trkpt lat="43.39077" lon="6.45645">
        <ele>46.76</ele>
        <time>2026-03-20T13:04:52Z</time>
      </trkpt>
      <trkpt lat="43.3908" lon="6.45634">
        <ele>46.76</ele>
        <time>2026-03-20T13:05:03Z</time>
      </trkpt>
      <trkpt lat="43.39085" lon="6.45624">
        <ele>46.28</ele>
        <time>2026-03-20T13:05:13Z</time>
      </trkpt>
      <trkpt lat="43.39089" lon="6.4561">
        <ele>45.32</ele>
        <time>2026-03-20T13:05:25Z</time>
      </trkpt>
      <trkpt lat="43.39092" lon="6.45601">
        <ele>45.32</ele>
        <time>2026-03-20T13:05:38Z</time>
      </trkpt>
      <trkpt lat="43.39096" lon="6.4559">
        <ele>46.76</ele>
        <time>2026-03-20T13:06:02Z</time>
      </trkpt>
      <trkpt lat="43.39098" lon="6.45576">
        <ele>46.76</ele>
        <time>2026-03-20T13:06:15Z</time>
      </trkpt>
      <trkpt lat="43.391" lon="6.45569">
        <ele>47.72</ele>
        <time>2026-03-20T13:06:21Z</time>
      </trkpt>
      <trkpt lat="43.39105" lon="6.45556">
        <ele>47.72</ele>
        <time>2026-03-20T13:06:32Z</time>
      </trkpt>
      <trkpt lat="43.39109" lon="6.45541">
        <ele>49.16</ele>
        <time>2026-03-20T13:06:42Z</time>
      </trkpt>
      <trkpt lat="43.39113" lon="6.45531">
        <ele>47.72</ele>
        <time>2026-03-20T13:06:53Z</time>
      </trkpt>
      <trkpt lat="43.39114" lon="6.45529">
        <ele>47.72</ele>
        <time>2026-03-20T13:06:55Z</time>
      </trkpt>
      <trkpt lat="43.39122" lon="6.45521">
        <ele>46.28</ele>
        <time>2026-03-20T13:07:09Z</time>
      </trkpt>
      <trkpt lat="43.39129" lon="6.45513">
        <ele>43.4</ele>
        <time>2026-03-20T13:07:21Z</time>
      </trkpt>
      <trkpt lat="43.3914" lon="6.45506">
        <ele>45.32</ele>
        <time>2026-03-20T13:07:35Z</time>
      </trkpt>
      <trkpt lat="43.39142" lon="6.45505">
        <ele>45.32</ele>
        <time>2026-03-20T13:07:37Z</time>
      </trkpt>
      <trkpt lat="43.39153" lon="6.45506">
        <ele>42.92</ele>
        <time>2026-03-20T13:07:50Z</time>
      </trkpt>
      <trkpt lat="43.39163" lon="6.455">
        <ele>40.99</ele>
        <time>2026-03-20T13:08:04Z</time>
      </trkpt>
      <trkpt lat="43.39173" lon="6.45489">
        <ele>43.4</ele>
        <time>2026-03-20T13:08:17Z</time>
      </trkpt>
      <trkpt lat="43.39181" lon="6.45483">
        <ele>42.44</ele>
        <time>2026-03-20T13:08:29Z</time>
      </trkpt>
      <trkpt lat="43.3919" lon="6.45473">
        <ele>42.92</ele>
        <time>2026-03-20T13:08:41Z</time>
      </trkpt>
      <trkpt lat="43.39191" lon="6.45466">
        <ele>45.8</ele>
        <time>2026-03-20T13:08:56Z</time>
      </trkpt>
      <trkpt lat="43.39196" lon="6.45466">
        <ele>46.28</ele>
        <time>2026-03-20T13:09:13Z</time>
      </trkpt>
      <trkpt lat="43.39203" lon="6.4546">
        <ele>45.32</ele>
        <time>2026-03-20T13:09:26Z</time>
      </trkpt>
      <trkpt lat="43.39202" lon="6.45451">
        <ele>45.32</ele>
        <time>2026-03-20T13:09:39Z</time>
      </trkpt>
      <trkpt lat="43.39202" lon="6.4545">
        <ele>44.36</ele>
        <time>2026-03-20T13:09:59Z</time>
      </trkpt>
      <trkpt lat="43.39207" lon="6.45452">
        <ele>42.92</ele>
        <time>2026-03-20T13:10:13Z</time>
      </trkpt>
      <trkpt lat="43.39214" lon="6.45454">
        <ele>40.51</ele>
        <time>2026-03-20T13:10:27Z</time>
      </trkpt>
      <trkpt lat="43.39216" lon="6.45455">
        <ele>42.44</ele>
        <time>2026-03-20T13:10:51Z</time>
      </trkpt>
      <trkpt lat="43.39218" lon="6.45456">
        <ele>41.47</ele>
        <time>2026-03-20T13:10:54Z</time>
      </trkpt>
      <trkpt lat="43.39227" lon="6.45466">
        <ele>40.51</ele>
        <time>2026-03-20T13:11:06Z</time>
      </trkpt>
      <trkpt lat="43.39239" lon="6.45466">
        <ele>43.88</ele>
        <time>2026-03-20T13:11:18Z</time>
      </trkpt>
      <trkpt lat="43.39253" lon="6.45469">
        <ele>46.28</ele>
        <time>2026-03-20T13:11:34Z</time>
      </trkpt>
      <trkpt lat="43.39263" lon="6.45476">
        <ele>44.84</ele>
        <time>2026-03-20T13:11:45Z</time>
      </trkpt>
      <trkpt lat="43.39275" lon="6.4548">
        <ele>44.84</ele>
        <time>2026-03-20T13:11:58Z</time>
      </trkpt>
      <trkpt lat="43.39288" lon="6.45484">
        <ele>44.36</ele>
        <time>2026-03-20T13:12:12Z</time>
      </trkpt>
      <trkpt lat="43.393" lon="6.45486">
        <ele>44.36</ele>
        <time>2026-03-20T13:12:25Z</time>
      </trkpt>
      <trkpt lat="43.39301" lon="6.45486">
        <ele>43.88</ele>
        <time>2026-03-20T13:12:26Z</time>
      </trkpt>
      <trkpt lat="43.39313" lon="6.45486">
        <ele>44.36</ele>
        <time>2026-03-20T13:12:41Z</time>
      </trkpt>
      <trkpt lat="43.39317" lon="6.45484">
        <ele>44.36</ele>
        <time>2026-03-20T13:12:54Z</time>
      </trkpt>
      <trkpt lat="43.39327" lon="6.45487">
        <ele>43.4</ele>
        <time>2026-03-20T13:13:07Z</time>
      </trkpt>
      <trkpt lat="43.39337" lon="6.45492">
        <ele>41.95</ele>
        <time>2026-03-20T13:13:19Z</time>
      </trkpt>
      <trkpt lat="43.39345" lon="6.45502">
        <ele>43.88</ele>
        <time>2026-03-20T13:13:31Z</time>
      </trkpt>
      <trkpt lat="43.39351" lon="6.45508">
        <ele>46.28</ele>
        <time>2026-03-20T13:13:42Z</time>
      </trkpt>
      <trkpt lat="43.39357" lon="6.4551">
        <ele>45.8</ele>
        <time>2026-03-20T13:13:59Z</time>
      </trkpt>
      <trkpt lat="43.39365" lon="6.4552">
        <ele>44.84</ele>
        <time>2026-03-20T13:14:10Z</time>
      </trkpt>
      <trkpt lat="43.39369" lon="6.45525">
        <ele>44.36</ele>
        <time>2026-03-20T13:14:20Z</time>
      </trkpt>
      <trkpt lat="43.39369" lon="6.45525">
        <ele>43.88</ele>
        <time>2026-03-20T13:14:23Z</time>
      </trkpt>
      <trkpt lat="43.3938" lon="6.45522">
        <ele>41.47</ele>
        <time>2026-03-20T13:14:36Z</time>
      </trkpt>
      <trkpt lat="43.39383" lon="6.45522">
        <ele>39.55</ele>
        <time>2026-03-20T13:14:40Z</time>
      </trkpt>
      <trkpt lat="43.39386" lon="6.45523">
        <ele>39.07</ele>
        <time>2026-03-20T13:14:44Z</time>
      </trkpt>
      <trkpt lat="43.39401" lon="6.45522">
        <ele>39.07</ele>
        <time>2026-03-20T13:14:59Z</time>
      </trkpt>
      <trkpt lat="43.39412" lon="6.45526">
        <ele>37.63</ele>
        <time>2026-03-20T13:15:10Z</time>
      </trkpt>
      <trkpt lat="43.39422" lon="6.45531">
        <ele>35.23</ele>
        <time>2026-03-20T13:15:22Z</time>
      </trkpt>
      <trkpt lat="43.39428" lon="6.45534">
        <ele>33.78</ele>
        <time>2026-03-20T13:15:33Z</time>
      </trkpt>
      <trkpt lat="43.39426" lon="6.45536">
        <ele>33.78</ele>
        <time>2026-03-20T13:15:46Z</time>
      </trkpt>
      <trkpt lat="43.39426" lon="6.45534">
        <ele>34.74</ele>
        <time>2026-03-20T13:16:10Z</time>
      </trkpt>
      <trkpt lat="43.39428" lon="6.45537">
        <ele>35.23</ele>
        <time>2026-03-20T13:16:27Z</time>
      </trkpt>
      <trkpt lat="43.39434" lon="6.45535">
        <ele>34.74</ele>
        <time>2026-03-20T13:16:38Z</time>
      </trkpt>
      <trkpt lat="43.39438" lon="6.45535">
        <ele>37.63</ele>
        <time>2026-03-20T13:16:56Z</time>
      </trkpt>
      <trkpt lat="43.39436" lon="6.45531">
        <ele>41.95</ele>
        <time>2026-03-20T13:17:17Z</time>
      </trkpt>
      <trkpt lat="43.39428" lon="6.45522">
        <ele>44.84</ele>
        <time>2026-03-20T13:17:32Z</time>
      </trkpt>
      <trkpt lat="43.39419" lon="6.45519">
        <ele>45.8</ele>
        <time>2026-03-20T13:17:43Z</time>
      </trkpt>
      <trkpt lat="43.39409" lon="6.45521">
        <ele>47.24</ele>
        <time>2026-03-20T13:17:54Z</time>
      </trkpt>
      <trkpt lat="43.39404" lon="6.45528">
        <ele>49.16</ele>
        <time>2026-03-20T13:18:04Z</time>
      </trkpt>
      <trkpt lat="43.39404" lon="6.45541">
        <ele>50.13</ele>
        <time>2026-03-20T13:18:15Z</time>
      </trkpt>
      <trkpt lat="43.39401" lon="6.45552">
        <ele>51.09</ele>
        <time>2026-03-20T13:18:25Z</time>
      </trkpt>
      <trkpt lat="43.39399" lon="6.45564">
        <ele>52.53</ele>
        <time>2026-03-20T13:18:37Z</time>
      </trkpt>
      <trkpt lat="43.39398" lon="6.45571">
        <ele>52.53</ele>
        <time>2026-03-20T13:18:47Z</time>
      </trkpt>
      <trkpt lat="43.39397" lon="6.45588">
        <ele>50.13</ele>
        <time>2026-03-20T13:19:08Z</time>
      </trkpt>
      <trkpt lat="43.39397" lon="6.45595">
        <ele>50.13</ele>
        <time>2026-03-20T13:19:21Z</time>
      </trkpt>
      <trkpt lat="43.39401" lon="6.45602">
        <ele>48.2</ele>
        <time>2026-03-20T13:19:32Z</time>
      </trkpt>
      <trkpt lat="43.39411" lon="6.45602">
        <ele>47.72</ele>
        <time>2026-03-20T13:19:44Z</time>
      </trkpt>
      <trkpt lat="43.39418" lon="6.45607">
        <ele>43.88</ele>
        <time>2026-03-20T13:19:56Z</time>
      </trkpt>
      <trkpt lat="43.39423" lon="6.45615">
        <ele>43.4</ele>
        <time>2026-03-20T13:20:13Z</time>
      </trkpt>
      <trkpt lat="43.39423" lon="6.45618">
        <ele>42.92</ele>
        <time>2026-03-20T13:20:29Z</time>
      </trkpt>
      <trkpt lat="43.39427" lon="6.45621">
        <ele>42.92</ele>
        <time>2026-03-20T13:20:41Z</time>
      </trkpt>
      <trkpt lat="43.39427" lon="6.45622">
        <ele>42.92</ele>
        <time>2026-03-20T13:20:43Z</time>
      </trkpt>
      <trkpt lat="43.39436" lon="6.45625">
        <ele>47.24</ele>
        <time>2026-03-20T13:20:55Z</time>
      </trkpt>
      <trkpt lat="43.39442" lon="6.45624">
        <ele>48.68</ele>
        <time>2026-03-20T13:21:04Z</time>
      </trkpt>
      <trkpt lat="43.39449" lon="6.4562">
        <ele>47.24</ele>
        <time>2026-03-20T13:21:17Z</time>
      </trkpt>
      <trkpt lat="43.39451" lon="6.45612">
        <ele>50.13</ele>
        <time>2026-03-20T13:21:39Z</time>
      </trkpt>
      <trkpt lat="43.39451" lon="6.45607">
        <ele>48.2</ele>
        <time>2026-03-20T13:21:59Z</time>
      </trkpt>
      <trkpt lat="43.39453" lon="6.45603">
        <ele>48.2</ele>
        <time>2026-03-20T13:22:04Z</time>
      </trkpt>
      <trkpt lat="43.39456" lon="6.45599">
        <ele>51.09</ele>
        <time>2026-03-20T13:22:20Z</time>
      </trkpt>
      <trkpt lat="43.39457" lon="6.4559">
        <ele>50.61</ele>
        <time>2026-03-20T13:22:43Z</time>
      </trkpt>
      <trkpt lat="43.39462" lon="6.45579">
        <ele>51.57</ele>
        <time>2026-03-20T13:22:53Z</time>
      </trkpt>
      <trkpt lat="43.39466" lon="6.4557">
        <ele>52.53</ele>
        <time>2026-03-20T13:23:04Z</time>
      </trkpt>
      <trkpt lat="43.39474" lon="6.45563">
        <ele>53.01</ele>
        <time>2026-03-20T13:23:16Z</time>
      </trkpt>
      <trkpt lat="43.39484" lon="6.45552">
        <ele>51.57</ele>
        <time>2026-03-20T13:23:31Z</time>
      </trkpt>
      <trkpt lat="43.39488" lon="6.45543">
        <ele>48.68</ele>
        <time>2026-03-20T13:23:44Z</time>
      </trkpt>
      <trkpt lat="43.39489" lon="6.45543">
        <ele>48.68</ele>
        <time>2026-03-20T13:23:48Z</time>
      </trkpt>
      <trkpt lat="43.39492" lon="6.45534">
        <ele>48.2</ele>
        <time>2026-03-20T13:23:56Z</time>
      </trkpt>
      <trkpt lat="43.39495" lon="6.45526">
        <ele>46.76</ele>
        <time>2026-03-20T13:24:07Z</time>
      </trkpt>
      <trkpt lat="43.39498" lon="6.45525">
        <ele>46.28</ele>
        <time>2026-03-20T13:24:10Z</time>
      </trkpt>
      <trkpt lat="43.39505" lon="6.4553">
        <ele>45.32</ele>
        <time>2026-03-20T13:24:20Z</time>
      </trkpt>
      <trkpt lat="43.39512" lon="6.45534">
        <ele>46.76</ele>
        <time>2026-03-20T13:24:30Z</time>
      </trkpt>
      <trkpt lat="43.39516" lon="6.4554">
        <ele>46.28</ele>
        <time>2026-03-20T13:24:40Z</time>
      </trkpt>
      <trkpt lat="43.39521" lon="6.45541">
        <ele>41.95</ele>
        <time>2026-03-20T13:25:02Z</time>
      </trkpt>
      <trkpt lat="43.39528" lon="6.45537">
        <ele>42.92</ele>
        <time>2026-03-20T13:25:10Z</time>
      </trkpt>
      <trkpt lat="43.39538" lon="6.45527">
        <ele>44.36</ele>
        <time>2026-03-20T13:25:22Z</time>
      </trkpt>
      <trkpt lat="43.39544" lon="6.45524">
        <ele>44.36</ele>
        <time>2026-03-20T13:25:29Z</time>
      </trkpt>
      <trkpt lat="43.39554" lon="6.45522">
        <ele>43.88</ele>
        <time>2026-03-20T13:25:43Z</time>
      </trkpt>
      <trkpt lat="43.39563" lon="6.45518">
        <ele>44.84</ele>
        <time>2026-03-20T13:25:54Z</time>
      </trkpt>
      <trkpt lat="43.39573" lon="6.45519">
        <ele>42.44</ele>
        <time>2026-03-20T13:26:06Z</time>
      </trkpt>
      <trkpt lat="43.39581" lon="6.45521">
        <ele>44.36</ele>
        <time>2026-03-20T13:26:17Z</time>
      </trkpt>
      <trkpt lat="43.39581" lon="6.45522">
        <ele>44.36</ele>
        <time>2026-03-20T13:26:18Z</time>
      </trkpt>
      <trkpt lat="43.3959" lon="6.45528">
        <ele>45.8</ele>
        <time>2026-03-20T13:26:30Z</time>
      </trkpt>
      <trkpt lat="43.39593" lon="6.45528">
        <ele>46.28</ele>
        <time>2026-03-20T13:26:33Z</time>
      </trkpt>
      <trkpt lat="43.39601" lon="6.45517">
        <ele>46.76</ele>
        <time>2026-03-20T13:26:45Z</time>
      </trkpt>
      <trkpt lat="43.39602" lon="6.45515">
        <ele>46.76</ele>
        <time>2026-03-20T13:26:47Z</time>
      </trkpt>
      <trkpt lat="43.39604" lon="6.45509">
        <ele>47.72</ele>
        <time>2026-03-20T13:27:04Z</time>
      </trkpt>
      <trkpt lat="43.39599" lon="6.45501">
        <ele>46.76</ele>
        <time>2026-03-20T13:27:15Z</time>
      </trkpt>
      <trkpt lat="43.39596" lon="6.45498">
        <ele>45.8</ele>
        <time>2026-03-20T13:27:19Z</time>
      </trkpt>
      <trkpt lat="43.39593" lon="6.45493">
        <ele>45.32</ele>
        <time>2026-03-20T13:27:23Z</time>
      </trkpt>
      <trkpt lat="43.39584" lon="6.45481">
        <ele>44.84</ele>
        <time>2026-03-20T13:27:35Z</time>
      </trkpt>
      <trkpt lat="43.39583" lon="6.45479">
        <ele>44.84</ele>
        <time>2026-03-20T13:27:37Z</time>
      </trkpt>
      <trkpt lat="43.39577" lon="6.45469">
        <ele>44.84</ele>
        <time>2026-03-20T13:27:49Z</time>
      </trkpt>
      <trkpt lat="43.39572" lon="6.45462">
        <ele>41.95</ele>
        <time>2026-03-20T13:28:03Z</time>
      </trkpt>
      <trkpt lat="43.39574" lon="6.45466">
        <ele>40.99</ele>
        <time>2026-03-20T13:28:21Z</time>
      </trkpt>
      <trkpt lat="43.39579" lon="6.45471">
        <ele>42.92</ele>
        <time>2026-03-20T13:28:39Z</time>
      </trkpt>
      <trkpt lat="43.39581" lon="6.45474">
        <ele>44.36</ele>
        <time>2026-03-20T13:28:50Z</time>
      </trkpt>
      <trkpt lat="43.39587" lon="6.45479">
        <ele>42.92</ele>
        <time>2026-03-20T13:29:03Z</time>
      </trkpt>
      <trkpt lat="43.39591" lon="6.45482">
        <ele>42.92</ele>
        <time>2026-03-20T13:29:14Z</time>
      </trkpt>
      <trkpt lat="43.39596" lon="6.45482">
        <ele>43.4</ele>
        <time>2026-03-20T13:29:34Z</time>
      </trkpt>
      <trkpt lat="43.39599" lon="6.45486">
        <ele>42.92</ele>
        <time>2026-03-20T13:29:44Z</time>
      </trkpt>
      <trkpt lat="43.39603" lon="6.45483">
        <ele>43.88</ele>
        <time>2026-03-20T13:29:57Z</time>
      </trkpt>
      <trkpt lat="43.39602" lon="6.45485">
        <ele>44.84</ele>
        <time>2026-03-20T13:30:16Z</time>
      </trkpt>
      <trkpt lat="43.396" lon="6.4549">
        <ele>43.88</ele>
        <time>2026-03-20T13:30:30Z</time>
      </trkpt>
      <trkpt lat="43.39602" lon="6.45495">
        <ele>42.44</ele>
        <time>2026-03-20T13:30:39Z</time>
      </trkpt>
      <trkpt lat="43.39601" lon="6.45499">
        <ele>41.47</ele>
        <time>2026-03-20T13:30:49Z</time>
      </trkpt>
      <trkpt lat="43.39604" lon="6.45505">
        <ele>41.95</ele>
        <time>2026-03-20T13:30:58Z</time>
      </trkpt>
      <trkpt lat="43.39607" lon="6.45502">
        <ele>42.92</ele>
        <time>2026-03-20T13:31:10Z</time>
      </trkpt>
      <trkpt lat="43.39608" lon="6.455">
        <ele>43.88</ele>
        <time>2026-03-20T13:31:36Z</time>
      </trkpt>
      <trkpt lat="43.39607" lon="6.45502">
        <ele>43.4</ele>
        <time>2026-03-20T13:32:08Z</time>
      </trkpt>
      <trkpt lat="43.39602" lon="6.45504">
        <ele>40.03</ele>
        <time>2026-03-20T13:32:23Z</time>
      </trkpt>
      <trkpt lat="43.39601" lon="6.45502">
        <ele>41.47</ele>
        <time>2026-03-20T13:32:49Z</time>
      </trkpt>
      <trkpt lat="43.39598" lon="6.45507">
        <ele>40.99</ele>
        <time>2026-03-20T13:33:02Z</time>
      </trkpt>
      <trkpt lat="43.39597" lon="6.45515">
        <ele>40.51</ele>
        <time>2026-03-20T13:33:13Z</time>
      </trkpt>
      <trkpt lat="43.39597" lon="6.45526">
        <ele>40.99</ele>
        <time>2026-03-20T13:33:24Z</time>
      </trkpt>
      <trkpt lat="43.39601" lon="6.45534">
        <ele>40.51</ele>
        <time>2026-03-20T13:33:35Z</time>
      </trkpt>
      <trkpt lat="43.39605" lon="6.45539">
        <ele>40.51</ele>
        <time>2026-03-20T13:33:43Z</time>
      </trkpt>
      <trkpt lat="43.39607" lon="6.4554">
        <ele>40.51</ele>
        <time>2026-03-20T13:33:46Z</time>
      </trkpt>
      <trkpt lat="43.39612" lon="6.45553">
        <ele>41.47</ele>
        <time>2026-03-20T13:33:58Z</time>
      </trkpt>
      <trkpt lat="43.39617" lon="6.45559">
        <ele>40.99</ele>
        <time>2026-03-20T13:34:09Z</time>
      </trkpt>
      <trkpt lat="43.39624" lon="6.45567">
        <ele>42.44</ele>
        <time>2026-03-20T13:34:20Z</time>
      </trkpt>
      <trkpt lat="43.3963" lon="6.45571">
        <ele>43.4</ele>
        <time>2026-03-20T13:34:30Z</time>
      </trkpt>
      <trkpt lat="43.39631" lon="6.45571">
        <ele>43.4</ele>
        <time>2026-03-20T13:34:31Z</time>
      </trkpt>
      <trkpt lat="43.39635" lon="6.45573">
        <ele>45.32</ele>
        <time>2026-03-20T13:34:36Z</time>
      </trkpt>
      <trkpt lat="43.39641" lon="6.45576">
        <ele>46.76</ele>
        <time>2026-03-20T13:34:46Z</time>
      </trkpt>
      <trkpt lat="43.39648" lon="6.4558">
        <ele>46.28</ele>
        <time>2026-03-20T13:34:58Z</time>
      </trkpt>
      <trkpt lat="43.39654" lon="6.45588">
        <ele>46.76</ele>
        <time>2026-03-20T13:35:09Z</time>
      </trkpt>
      <trkpt lat="43.39658" lon="6.45591">
        <ele>47.24</ele>
        <time>2026-03-20T13:35:20Z</time>
      </trkpt>
      <trkpt lat="43.39661" lon="6.45582">
        <ele>49.16</ele>
        <time>2026-03-20T13:35:37Z</time>
      </trkpt>
      <trkpt lat="43.39661" lon="6.45582">
        <ele>49.65</ele>
        <time>2026-03-20T13:35:43Z</time>
      </trkpt>
      <trkpt lat="43.3966" lon="6.45586">
        <ele>49.16</ele>
        <time>2026-03-20T13:35:48Z</time>
      </trkpt>
      <trkpt lat="43.39668" lon="6.45598">
        <ele>47.72</ele>
        <time>2026-03-20T13:36:00Z</time>
      </trkpt>
      <trkpt lat="43.39676" lon="6.45606">
        <ele>46.76</ele>
        <time>2026-03-20T13:36:12Z</time>
      </trkpt>
      <trkpt lat="43.39682" lon="6.45614">
        <ele>44.84</ele>
        <time>2026-03-20T13:36:23Z</time>
      </trkpt>
      <trkpt lat="43.39692" lon="6.45623">
        <ele>45.8</ele>
        <time>2026-03-20T13:36:35Z</time>
      </trkpt>
      <trkpt lat="43.39694" lon="6.45624">
        <ele>45.8</ele>
        <time>2026-03-20T13:36:38Z</time>
      </trkpt>
      <trkpt lat="43.39706" lon="6.45623">
        <ele>48.68</ele>
        <time>2026-03-20T13:36:53Z</time>
      </trkpt>
      <trkpt lat="43.39708" lon="6.45621">
        <ele>48.68</ele>
        <time>2026-03-20T13:36:54Z</time>
      </trkpt>
      <trkpt lat="43.39713" lon="6.45612">
        <ele>48.68</ele>
        <time>2026-03-20T13:37:01Z</time>
      </trkpt>
      <trkpt lat="43.39719" lon="6.45601">
        <ele>48.68</ele>
        <time>2026-03-20T13:37:14Z</time>
      </trkpt>
      <trkpt lat="43.39719" lon="6.456">
        <ele>48.68</ele>
        <time>2026-03-20T13:37:28Z</time>
      </trkpt>
      <trkpt lat="43.3972" lon="6.45599">
        <ele>50.13</ele>
        <time>2026-03-20T13:37:42Z</time>
      </trkpt>
      <trkpt lat="43.39717" lon="6.45603">
        <ele>48.2</ele>
        <time>2026-03-20T13:37:57Z</time>
      </trkpt>
      <trkpt lat="43.3972" lon="6.45597">
        <ele>43.88</ele>
        <time>2026-03-20T13:38:21Z</time>
      </trkpt>
      <trkpt lat="43.39725" lon="6.45587">
        <ele>45.8</ele>
        <time>2026-03-20T13:38:32Z</time>
      </trkpt>
      <trkpt lat="43.39726" lon="6.45584">
        <ele>44.84</ele>
        <time>2026-03-20T13:38:49Z</time>
      </trkpt>
      <trkpt lat="43.39731" lon="6.45575">
        <ele>45.32</ele>
        <time>2026-03-20T13:39:05Z</time>
      </trkpt>
      <trkpt lat="43.39732" lon="6.45572">
        <ele>45.8</ele>
        <time>2026-03-20T13:39:09Z</time>
      </trkpt>
      <trkpt lat="43.39738" lon="6.4556">
        <ele>48.68</ele>
        <time>2026-03-20T13:39:21Z</time>
      </trkpt>
      <trkpt lat="43.3974" lon="6.45549">
        <ele>49.16</ele>
        <time>2026-03-20T13:39:32Z</time>
      </trkpt>
      <trkpt lat="43.39735" lon="6.45543">
        <ele>47.24</ele>
        <time>2026-03-20T13:39:48Z</time>
      </trkpt>
      <trkpt lat="43.39727" lon="6.45544">
        <ele>47.72</ele>
        <time>2026-03-20T13:40:01Z</time>
      </trkpt>
      <trkpt lat="43.39728" lon="6.4555">
        <ele>44.84</ele>
        <time>2026-03-20T13:40:18Z</time>
      </trkpt>
      <trkpt lat="43.39728" lon="6.45546">
        <ele>44.36</ele>
        <time>2026-03-20T13:40:32Z</time>
      </trkpt>
      <trkpt lat="43.39722" lon="6.45537">
        <ele>45.8</ele>
        <time>2026-03-20T13:40:45Z</time>
      </trkpt>
      <trkpt lat="43.3972" lon="6.45533">
        <ele>46.28</ele>
        <time>2026-03-20T13:40:50Z</time>
      </trkpt>
      <trkpt lat="43.39717" lon="6.45526">
        <ele>47.24</ele>
        <time>2026-03-20T13:41:00Z</time>
      </trkpt>
      <trkpt lat="43.39716" lon="6.45519">
        <ele>47.72</ele>
        <time>2026-03-20T13:41:07Z</time>
      </trkpt>
      <trkpt lat="43.39709" lon="6.45515">
        <ele>46.28</ele>
        <time>2026-03-20T13:41:17Z</time>
      </trkpt>
      <trkpt lat="43.39712" lon="6.45519">
        <ele>44.84</ele>
        <time>2026-03-20T13:41:29Z</time>
      </trkpt>
      <trkpt lat="43.39712" lon="6.45525">
        <ele>44.36</ele>
        <time>2026-03-20T13:41:47Z</time>
      </trkpt>
      <trkpt lat="43.39712" lon="6.45521">
        <ele>44.36</ele>
        <time>2026-03-20T13:41:52Z</time>
      </trkpt>
      <trkpt lat="43.39707" lon="6.45507">
        <ele>44.36</ele>
        <time>2026-03-20T13:42:04Z</time>
      </trkpt>
      <trkpt lat="43.39699" lon="6.45494">
        <ele>44.84</ele>
        <time>2026-03-20T13:42:17Z</time>
      </trkpt>
      <trkpt lat="43.39693" lon="6.45483">
        <ele>44.36</ele>
        <time>2026-03-20T13:42:28Z</time>
      </trkpt>
      <trkpt lat="43.39686" lon="6.45473">
        <ele>44.36</ele>
        <time>2026-03-20T13:42:39Z</time>
      </trkpt>
      <trkpt lat="43.39679" lon="6.45462">
        <ele>44.84</ele>
        <time>2026-03-20T13:42:52Z</time>
      </trkpt>
      <trkpt lat="43.39677" lon="6.45456">
        <ele>44.36</ele>
        <time>2026-03-20T13:43:09Z</time>
      </trkpt>
      <trkpt lat="43.39677" lon="6.45456">
        <ele>45.8</ele>
        <time>2026-03-20T13:43:34Z</time>
      </trkpt>
      <trkpt lat="43.39677" lon="6.45458">
        <ele>44.36</ele>
        <time>2026-03-20T13:44:08Z</time>
      </trkpt>
      <trkpt lat="43.39677" lon="6.4546">
        <ele>44.36</ele>
        <time>2026-03-20T13:44:30Z</time>
      </trkpt>
      <trkpt lat="43.39676" lon="6.45461">
        <ele>44.36</ele>
        <time>2026-03-20T13:44:42Z</time>
      </trkpt>
      <trkpt lat="43.39674" lon="6.45462">
        <ele>44.36</ele>
        <time>2026-03-20T13:45:00Z</time>
      </trkpt>
      <trkpt lat="43.39675" lon="6.45461">
        <ele>47.72</ele>
        <time>2026-03-20T13:45:16Z</time>
      </trkpt>
      <trkpt lat="43.39675" lon="6.4546">
        <ele>49.16</ele>
        <time>2026-03-20T13:45:34Z</time>
      </trkpt>
      <trkpt lat="43.39677" lon="6.45461">
        <ele>48.68</ele>
        <time>2026-03-20T13:45:49Z</time>
      </trkpt>
      <trkpt lat="43.39677" lon="6.45463">
        <ele>47.72</ele>
        <time>2026-03-20T13:46:04Z</time>
      </trkpt>
      <trkpt lat="43.39675" lon="6.45461">
        <ele>45.8</ele>
        <time>2026-03-20T13:46:21Z</time>
      </trkpt>
      <trkpt lat="43.39676" lon="6.45461">
        <ele>46.76</ele>
        <time>2026-03-20T13:46:47Z</time>
      </trkpt>
      <trkpt lat="43.39675" lon="6.45458">
        <ele>46.76</ele>
        <time>2026-03-20T13:47:08Z</time>
      </trkpt>
    </trkseg>
  </trk>
</gpx>